﻿<?xml version="1.0" encoding="utf-8"?><gpx creator="Garmin Desktop App" version="1.1" xsi:schemaLocation="http://www.topografix.com/GPX/1/1 http://www.topografix.com/GPX/1/1/gpx.xsd http://www.garmin.com/xmlschemas/WaypointExtension/v1 http://www8.garmin.com/xmlschemas/WaypointExtensionv1.xsd http://www.garmin.com/xmlschemas/TrackPointExtension/v1 http://www.garmin.com/xmlschemas/TrackPointExtensionv1.xsd http://www.garmin.com/xmlschemas/GpxExtensions/v3 http://www8.garmin.com/xmlschemas/GpxExtensionsv3.xsd http://www.garmin.com/xmlschemas/ActivityExtension/v1 http://www8.garmin.com/xmlschemas/ActivityExtensionv1.xsd http://www.garmin.com/xmlschemas/AdventuresExtensions/v1 http://www8.garmin.com/xmlschemas/AdventuresExtensionv1.xsd http://www.garmin.com/xmlschemas/PressureExtension/v1 http://www.garmin.com/xmlschemas/PressureExtensionv1.xsd http://www.garmin.com/xmlschemas/TripExtensions/v1 http://www.garmin.com/xmlschemas/TripExtensionsv1.xsd http://www.garmin.com/xmlschemas/TripMetaDataExtensions/v1 http://www.garmin.com/xmlschemas/TripMetaDataExtensionsv1.xsd http://www.garmin.com/xmlschemas/ViaPointTransportationModeExtensions/v1 http://www.garmin.com/xmlschemas/ViaPointTransportationModeExtensionsv1.xsd http://www.garmin.com/xmlschemas/CreationTimeExtension/v1 http://www.garmin.com/xmlschemas/CreationTimeExtensionsv1.xsd http://www.garmin.com/xmlschemas/AccelerationExtension/v1 http://www.garmin.com/xmlschemas/AccelerationExtensionv1.xsd http://www.garmin.com/xmlschemas/PowerExtension/v1 http://www.garmin.com/xmlschemas/PowerExtensionv1.xsd http://www.garmin.com/xmlschemas/VideoExtension/v1 http://www.garmin.com/xmlschemas/VideoExtensionv1.xsd" xmlns="http://www.topografix.com/GPX/1/1" xmlns:xsi="http://www.w3.org/2001/XMLSchema-instance" xmlns:wptx1="http://www.garmin.com/xmlschemas/WaypointExtension/v1" xmlns:gpxtrx="http://www.garmin.com/xmlschemas/GpxExtensions/v3" xmlns:gpxtpx="http://www.garmin.com/xmlschemas/TrackPointExtension/v1" xmlns:gpxx="http://www.garmin.com/xmlschemas/GpxExtensions/v3" xmlns:trp="http://www.garmin.com/xmlschemas/TripExtensions/v1" xmlns:adv="http://www.garmin.com/xmlschemas/AdventuresExtensions/v1" xmlns:prs="http://www.garmin.com/xmlschemas/PressureExtension/v1" xmlns:tmd="http://www.garmin.com/xmlschemas/TripMetaDataExtensions/v1" xmlns:vptm="http://www.garmin.com/xmlschemas/ViaPointTransportationModeExtensions/v1" xmlns:ctx="http://www.garmin.com/xmlschemas/CreationTimeExtension/v1" xmlns:gpxacc="http://www.garmin.com/xmlschemas/AccelerationExtension/v1" xmlns:gpxpx="http://www.garmin.com/xmlschemas/PowerExtension/v1" xmlns:vidx1="http://www.garmin.com/xmlschemas/VideoExtension/v1">

  <metadata>
    <link href="http://www.garmin.com">
      <text>Garmin International</text>
    </link>
    <time>2015-09-17T09:43:30Z</time>
    <bounds maxlat="44.074812401086092" maxlon="9.98387647792697" minlat="44.04375652782619" minlon="9.910041214898229" />
  </metadata>

  <trk>
    <name>bocca di magra lerici</name>
    <extensions>
      <gpxx:TrackExtension>
        <gpxx:DisplayColor>Cyan</gpxx:DisplayColor>
      </gpxx:TrackExtension>
    </extensions>
    <trkseg>
      <trkpt lat="44.073731638491154" lon="9.910041214898229">
        <ele>-0.69</ele>
        <time>2015-04-21T10:43:04Z</time>
      </trkpt>
      <trkpt lat="44.073833981528878" lon="9.910240033641458">
        <ele>-0.83</ele>
        <time>2015-04-21T10:42:45Z</time>
      </trkpt>
      <trkpt lat="44.073945041745901" lon="9.910489143803716">
        <ele>-0.4</ele>
        <time>2015-04-21T10:42:28Z</time>
      </trkpt>
      <trkpt lat="44.073732392862439" lon="9.91058461368084">
        <ele>1.8</ele>
        <time>2015-04-21T10:42:12Z</time>
      </trkpt>
      <trkpt lat="44.073586212471128" lon="9.910720065236092">
        <ele>3.73</ele>
        <time>2015-04-21T10:41:58Z</time>
      </trkpt>
      <trkpt lat="44.073412455618382" lon="9.910903880372644">
        <ele>6.91</ele>
        <time>2015-04-21T10:41:40Z</time>
      </trkpt>
      <trkpt lat="44.073373898863792" lon="9.911066154018045">
        <ele>10.029999999999999</ele>
        <time>2015-04-21T10:41:22Z</time>
      </trkpt>
      <trkpt lat="44.073311453685164" lon="9.911235217005014">
        <ele>13.199999999999999</ele>
        <time>2015-04-21T10:41:03Z</time>
      </trkpt>
      <trkpt lat="44.073218917474151" lon="9.911417439579964">
        <ele>16.309999999999999</ele>
        <time>2015-04-21T10:40:38Z</time>
      </trkpt>
      <trkpt lat="44.073143480345607" lon="9.911612821742892">
        <ele>19.34</ele>
        <time>2015-04-21T10:40:17Z</time>
      </trkpt>
      <trkpt lat="44.073053961619735" lon="9.911801917478442">
        <ele>22.359999999999999</ele>
        <time>2015-04-21T10:40:01Z</time>
      </trkpt>
      <trkpt lat="44.072962598875165" lon="9.911994785070419">
        <ele>25.390000000000001</ele>
        <time>2015-04-21T10:39:43Z</time>
      </trkpt>
      <trkpt lat="44.072886994108558" lon="9.912166614085436">
        <ele>28.440000000000001</ele>
        <time>2015-04-21T10:39:27Z</time>
      </trkpt>
      <trkpt lat="44.072820357978344" lon="9.91227918304503">
        <ele>31.579999999999998</ele>
        <time>2015-04-21T10:39:14Z</time>
      </trkpt>
      <trkpt lat="44.07276788726449" lon="9.912379262968898">
        <ele>32.840000000000003</ele>
        <time>2015-04-21T10:38:47Z</time>
      </trkpt>
      <trkpt lat="44.072689851745963" lon="9.91248294711113">
        <ele>35.82</ele>
        <time>2015-04-21T10:38:29Z</time>
      </trkpt>
      <trkpt lat="44.072581557556987" lon="9.912620075047016">
        <ele>38.829999999999998</ele>
        <time>2015-04-21T10:38:13Z</time>
      </trkpt>
      <trkpt lat="44.072491535916924" lon="9.912800956517458">
        <ele>41.850000000000001</ele>
        <time>2015-04-21T10:37:57Z</time>
      </trkpt>
      <trkpt lat="44.072411488741636" lon="9.912893828004599">
        <ele>44.869999999999997</ele>
        <time>2015-04-21T10:37:45Z</time>
      </trkpt>
      <trkpt lat="44.072351725772023" lon="9.913100274279714">
        <ele>47.159999999999997</ele>
        <time>2015-04-21T10:37:28Z</time>
      </trkpt>
      <trkpt lat="44.072233038023114" lon="9.913321221247315">
        <ele>49.859999999999999</ele>
        <time>2015-04-21T10:37:12Z</time>
      </trkpt>
      <trkpt lat="44.07215760089457" lon="9.91348902694881">
        <ele>52.890000000000001</ele>
        <time>2015-04-21T10:36:58Z</time>
      </trkpt>
      <trkpt lat="44.072142681106925" lon="9.913581311702728">
        <ele>55.939999999999998</ele>
        <time>2015-04-21T10:36:49Z</time>
      </trkpt>
      <trkpt lat="44.072200013324618" lon="9.913654066622257">
        <ele>59.079999999999998</ele>
        <time>2015-04-21T10:36:39Z</time>
      </trkpt>
      <trkpt lat="44.072122061625123" lon="9.913711315020919">
        <ele>59.659999999999997</ele>
        <time>2015-04-21T10:36:25Z</time>
      </trkpt>
      <trkpt lat="44.071966158226132" lon="9.913789853453636">
        <ele>60.75</ele>
        <time>2015-04-21T10:36:10Z</time>
      </trkpt>
      <trkpt lat="44.071840010583401" lon="9.913931423798204">
        <ele>62.310000000000002</ele>
        <time>2015-04-21T10:35:56Z</time>
      </trkpt>
      <trkpt lat="44.071719897910953" lon="9.91406318731606">
        <ele>62.899999999999999</ele>
        <time>2015-04-21T10:35:42Z</time>
      </trkpt>
      <trkpt lat="44.071692237630486" lon="9.914219677448273">
        <ele>63.649999999999999</ele>
        <time>2015-04-21T10:35:32Z</time>
      </trkpt>
      <trkpt lat="44.07174370251596" lon="9.914188161492348">
        <ele>65.040000000000006</ele>
        <time>2015-04-21T10:35:17Z</time>
      </trkpt>
      <trkpt lat="44.071734063327312" lon="9.914490496739745">
        <ele>67.040000000000006</ele>
        <time>2015-04-21T10:34:57Z</time>
      </trkpt>
      <trkpt lat="44.071763986721635" lon="9.914838178083301">
        <ele>68.310000000000002</ele>
        <time>2015-04-21T10:34:37Z</time>
      </trkpt>
      <trkpt lat="44.071747977286577" lon="9.915091311559081">
        <ele>68.5</ele>
        <time>2015-04-21T10:34:18Z</time>
      </trkpt>
      <trkpt lat="44.071745797991753" lon="9.915246209129691">
        <ele>67.469999999999999</ele>
        <time>2015-04-21T10:34:05Z</time>
      </trkpt>
      <trkpt lat="44.071826599538326" lon="9.915416026487947">
        <ele>67.700000000000003</ele>
        <time>2015-04-21T10:33:52Z</time>
      </trkpt>
      <trkpt lat="44.07196163199842" lon="9.915582993999124">
        <ele>68.349999999999994</ele>
        <time>2015-04-21T10:33:39Z</time>
      </trkpt>
      <trkpt lat="44.071972947567701" lon="9.915827829390764">
        <ele>69.730000000000004</ele>
        <time>2015-04-21T10:33:19Z</time>
      </trkpt>
      <trkpt lat="44.071981497108936" lon="9.916042825207114">
        <ele>71.290000000000006</ele>
        <time>2015-04-21T10:17:48Z</time>
      </trkpt>
      <trkpt lat="44.072029860690236" lon="9.916237536817789">
        <ele>73.769999999999996</ele>
        <time>2015-04-21T10:17:32Z</time>
      </trkpt>
      <trkpt lat="44.072111835703254" lon="9.916407437995076">
        <ele>74.840000000000003</ele>
        <time>2015-04-21T10:17:18Z</time>
      </trkpt>
      <trkpt lat="44.072157181799412" lon="9.916639784350991">
        <ele>73.469999999999999</ele>
        <time>2015-04-21T10:16:59Z</time>
      </trkpt>
      <trkpt lat="44.072098089382052" lon="9.916871208697557">
        <ele>72.390000000000001</ele>
        <time>2015-04-21T10:16:41Z</time>
      </trkpt>
      <trkpt lat="44.071969175711274" lon="9.916909849271178">
        <ele>73.109999999999999</ele>
        <time>2015-04-21T10:16:24Z</time>
      </trkpt>
      <trkpt lat="44.071785192936659" lon="9.916996518149972">
        <ele>75.790000000000006</ele>
        <time>2015-04-21T10:16:03Z</time>
      </trkpt>
      <trkpt lat="44.071706738322973" lon="9.917153175920248">
        <ele>78.359999999999999</ele>
        <time>2015-04-21T10:15:49Z</time>
      </trkpt>
      <trkpt lat="44.071588888764381" lon="9.91730279289186">
        <ele>80.420000000000002</ele>
        <time>2015-04-21T10:15:33Z</time>
      </trkpt>
      <trkpt lat="44.07140071503818" lon="9.917328944429755">
        <ele>81.840000000000003</ele>
        <time>2015-04-21T10:15:17Z</time>
      </trkpt>
      <trkpt lat="44.071260737255216" lon="9.917359370738268">
        <ele>82.640000000000001</ele>
        <time>2015-04-21T10:15:03Z</time>
      </trkpt>
      <trkpt lat="44.071068121120334" lon="9.917418630793691">
        <ele>83.290000000000006</ele>
        <time>2015-04-21T10:14:45Z</time>
      </trkpt>
      <trkpt lat="44.070882713422179" lon="9.917537234723568">
        <ele>85.189999999999998</ele>
        <time>2015-04-21T10:14:26Z</time>
      </trkpt>
      <trkpt lat="44.070742484182119" lon="9.917530780658126">
        <ele>83.150000000000006</ele>
        <time>2015-04-21T10:14:09Z</time>
      </trkpt>
      <trkpt lat="44.070644667372108" lon="9.91734822280705">
        <ele>80.219999999999999</ele>
        <time>2015-04-21T10:13:52Z</time>
      </trkpt>
      <trkpt lat="44.070415087044239" lon="9.917480489239097">
        <ele>80.609999999999999</ele>
        <time>2015-04-21T10:13:22Z</time>
      </trkpt>
      <trkpt lat="44.070310145616531" lon="9.917691042646766">
        <ele>78.359999999999999</ele>
        <time>2015-04-21T10:12:59Z</time>
      </trkpt>
      <trkpt lat="44.070246107876301" lon="9.917934620752931">
        <ele>77.030000000000001</ele>
        <time>2015-04-21T10:12:38Z</time>
      </trkpt>
      <trkpt lat="44.070226494222879" lon="9.918169900774956">
        <ele>75.890000000000001</ele>
        <time>2015-04-21T10:12:23Z</time>
      </trkpt>
      <trkpt lat="44.070089366286993" lon="9.918404761701822">
        <ele>78.370000000000005</ele>
        <time>2015-04-21T10:12:03Z</time>
      </trkpt>
      <trkpt lat="44.070045361295342" lon="9.91862797178328">
        <ele>81.439999999999998</ele>
        <time>2015-04-21T10:11:45Z</time>
      </trkpt>
      <trkpt lat="44.069939246401191" lon="9.918831568211317">
        <ele>84.090000000000003</ele>
        <time>2015-04-21T10:11:21Z</time>
      </trkpt>
      <trkpt lat="44.069852158427238" lon="9.919051257893443">
        <ele>84.590000000000003</ele>
        <time>2015-04-21T10:11:05Z</time>
      </trkpt>
      <trkpt lat="44.069755515083671" lon="9.919337751343846">
        <ele>84.439999999999998</ele>
        <time>2015-04-21T10:10:46Z</time>
      </trkpt>
      <trkpt lat="44.069710923358798" lon="9.919560123234987">
        <ele>82.719999999999999</ele>
        <time>2015-04-21T10:10:27Z</time>
      </trkpt>
      <trkpt lat="44.069674545899034" lon="9.919806467369199">
        <ele>82.719999999999999</ele>
        <time>2015-04-21T10:10:07Z</time>
      </trkpt>
      <trkpt lat="44.069551834836602" lon="9.919849382713437">
        <ele>86.469999999999999</ele>
        <time>2015-04-21T10:09:24Z</time>
      </trkpt>
      <trkpt lat="44.069408923387527" lon="9.919880144298077">
        <ele>89.170000000000002</ele>
        <time>2015-04-21T10:09:03Z</time>
      </trkpt>
      <trkpt lat="44.069322589784861" lon="9.919968405738473">
        <ele>92.230000000000004</ele>
        <time>2015-04-21T10:08:45Z</time>
      </trkpt>
      <trkpt lat="44.069227119907737" lon="9.919998832046986">
        <ele>95.280000000000001</ele>
        <time>2015-04-21T10:08:29Z</time>
      </trkpt>
      <trkpt lat="44.069103905931115" lon="9.920034538954496">
        <ele>98.439999999999998</ele>
        <time>2015-04-21T10:08:12Z</time>
      </trkpt>
      <trkpt lat="44.069005670025945" lon="9.920076951384544">
        <ele>101.54000000000001</ele>
        <time>2015-04-21T10:07:55Z</time>
      </trkpt>
      <trkpt lat="44.068953283131123" lon="9.920178791508079">
        <ele>104.23</ele>
        <time>2015-04-21T10:07:38Z</time>
      </trkpt>
      <trkpt lat="44.068862088024616" lon="9.920243667438626">
        <ele>106.39</ele>
        <time>2015-04-21T10:07:22Z</time>
      </trkpt>
      <trkpt lat="44.068745076656342" lon="9.920356990769506">
        <ele>108.59999999999999</ele>
        <time>2015-04-21T10:07:05Z</time>
      </trkpt>
      <trkpt lat="44.068734515458345" lon="9.920472577214241" />
      <trkpt lat="44.068689588457346" lon="9.920646082609892" />
      <trkpt lat="44.068671651184559" lon="9.920913046225905" />
      <trkpt lat="44.068761505186558" lon="9.921193337067962" />
      <trkpt lat="44.068824369460344" lon="9.921033158898354" />
      <trkpt lat="44.06900399364531" lon="9.921033158898354" />
      <trkpt lat="44.069084879010916" lon="9.921300122514367" />
      <trkpt lat="44.069084879010916" lon="9.921727264299989" />
      <trkpt lat="44.069183701649308" lon="9.92186070419848" />
      <trkpt lat="44.069189568981528" lon="9.921863051131368">
        <ele>156.25999999999999</ele>
        <time>2015-08-28T10:52:40Z</time>
      </trkpt>
      <trkpt lat="44.069227790459991" lon="9.921719636768103">
        <ele>156.52000000000001</ele>
        <time>2015-08-28T10:52:58Z</time>
      </trkpt>
      <trkpt lat="44.069311441853642" lon="9.921581167727709">
        <ele>157.22999999999999</ele>
        <time>2015-08-28T10:53:17Z</time>
      </trkpt>
      <trkpt lat="44.069486120715737" lon="9.921460216864944">
        <ele>158.34999999999999</ele>
        <time>2015-08-28T10:53:36Z</time>
      </trkpt>
      <trkpt lat="44.069703631103039" lon="9.921522997319698">
        <ele>160.13</ele>
        <time>2015-08-28T10:53:58Z</time>
      </trkpt>
      <trkpt lat="44.069874119013548" lon="9.921608995646238">
        <ele>161.18000000000001</ele>
        <time>2015-08-28T10:54:15Z</time>
      </trkpt>
      <trkpt lat="44.070161953568459" lon="9.921651659533382">
        <ele>161.13</ele>
        <time>2015-08-28T10:54:39Z</time>
      </trkpt>
      <trkpt lat="44.070405196398497" lon="9.921838995069265">
        <ele>161.94999999999999</ele>
        <time>2015-08-28T10:55:02Z</time>
      </trkpt>
      <trkpt lat="44.070613151416183" lon="9.921943517401815">
        <ele>161.33000000000001</ele>
        <time>2015-08-28T10:55:21Z</time>
      </trkpt>
      <trkpt lat="44.07087885774672" lon="9.921974865719676">
        <ele>163.12</ele>
        <time>2015-08-28T10:55:45Z</time>
      </trkpt>
      <trkpt lat="44.07107382081449" lon="9.922001017257571">
        <ele>163.63</ele>
        <time>2015-08-28T10:56:03Z</time>
      </trkpt>
      <trkpt lat="44.07131765037775" lon="9.922050973400474">
        <ele>164.87</ele>
        <time>2015-08-28T10:56:26Z</time>
      </trkpt>
      <trkpt lat="44.071537340059876" lon="9.921940751373768">
        <ele>166.25</ele>
        <time>2015-08-28T10:56:47Z</time>
      </trkpt>
      <trkpt lat="44.071810338646173" lon="9.921787362545729">
        <ele>166.96000000000001</ele>
        <time>2015-08-28T10:57:13Z</time>
      </trkpt>
      <trkpt lat="44.071925673633814" lon="9.921686444431543">
        <ele>167.75</ele>
        <time>2015-08-28T10:57:27Z</time>
      </trkpt>
      <trkpt lat="44.071990381926298" lon="9.921705974265933">
        <ele>168.22999999999999</ele>
        <time>2015-08-28T10:57:45Z</time>
      </trkpt>
      <trkpt lat="44.071983005851507" lon="9.921722570434213">
        <ele>168.49000000000001</ele>
        <time>2015-08-28T10:58:00Z</time>
      </trkpt>
      <trkpt lat="44.071937995031476" lon="9.921741094440222">
        <ele>168.66999999999999</ele>
        <time>2015-08-28T10:58:16Z</time>
      </trkpt>
      <trkpt lat="44.07193279825151" lon="9.921749476343393">
        <ele>171.25</ele>
        <time>2015-08-28T08:26:45Z</time>
      </trkpt>
      <trkpt lat="44.071802627295256" lon="9.921851400285959">
        <ele>172.81999999999999</ele>
        <time>2015-08-28T08:27:01Z</time>
      </trkpt>
      <trkpt lat="44.071728195995092" lon="9.921912169083953">
        <ele>173.00999999999999</ele>
        <time>2015-08-28T08:27:37Z</time>
      </trkpt>
      <trkpt lat="44.071638844907284" lon="9.922057259827852">
        <ele>173.56</ele>
        <time>2015-08-28T08:27:52Z</time>
      </trkpt>
      <trkpt lat="44.071533568203449" lon="9.922212576493621">
        <ele>175.11000000000001</ele>
        <time>2015-08-28T08:28:09Z</time>
      </trkpt>
      <trkpt lat="44.071468021720648" lon="9.922349536791444">
        <ele>175.88</ele>
        <time>2015-08-28T08:28:21Z</time>
      </trkpt>
      <trkpt lat="44.071475900709629" lon="9.922354649752379">
        <ele>175.84</ele>
        <time>2015-08-28T08:28:35Z</time>
      </trkpt>
      <trkpt lat="44.07144270837307" lon="9.922476438805461">
        <ele>177.21000000000001</ele>
        <time>2015-08-28T08:28:51Z</time>
      </trkpt>
      <trkpt lat="44.071443462744355" lon="9.922622786834836">
        <ele>180.25</ele>
        <time>2015-08-28T08:29:08Z</time>
      </trkpt>
      <trkpt lat="44.071404654532671" lon="9.922720016911626">
        <ele>183.53</ele>
        <time>2015-08-28T08:29:22Z</time>
      </trkpt>
      <trkpt lat="44.071321589872241" lon="9.9228042550385">
        <ele>185.84</ele>
        <time>2015-08-28T08:29:35Z</time>
      </trkpt>
      <trkpt lat="44.071207512170076" lon="9.92297625169158">
        <ele>188.68000000000001</ele>
        <time>2015-08-28T08:29:58Z</time>
      </trkpt>
      <trkpt lat="44.07115152105689" lon="9.923161743208766">
        <ele>191.78999999999999</ele>
        <time>2015-08-28T08:30:15Z</time>
      </trkpt>
      <trkpt lat="44.071121597662568" lon="9.923345390707254">
        <ele>194.86000000000001</ele>
        <time>2015-08-28T08:30:33Z</time>
      </trkpt>
      <trkpt lat="44.071068791672587" lon="9.923572540283203">
        <ele>197.49000000000001</ele>
        <time>2015-08-28T08:30:55Z</time>
      </trkpt>
      <trkpt lat="44.071071473881602" lon="9.923737747594714">
        <ele>200.59</ele>
        <time>2015-08-28T08:31:13Z</time>
      </trkpt>
      <trkpt lat="44.071030737832189" lon="9.923910666257143">
        <ele>203.24000000000001</ele>
        <time>2015-08-28T08:31:30Z</time>
      </trkpt>
      <trkpt lat="44.071083879098296" lon="9.923956682905555">
        <ele>204.36000000000001</ele>
        <time>2015-08-28T08:31:50Z</time>
      </trkpt>
      <trkpt lat="44.071096619591117" lon="9.923954587429762">
        <ele>204.41999999999999</ele>
        <time>2015-08-28T08:32:12Z</time>
      </trkpt>
      <trkpt lat="44.071202399209142" lon="9.923955174162984">
        <ele>205.31999999999999</ele>
        <time>2015-08-28T08:32:41Z</time>
      </trkpt>
      <trkpt lat="44.071332989260554" lon="9.923969255760312">
        <ele>208.38</ele>
        <time>2015-08-28T08:32:58Z</time>
      </trkpt>
      <trkpt lat="44.071439020335674" lon="9.923939583823085">
        <ele>211.56</ele>
        <time>2015-08-28T08:33:14Z</time>
      </trkpt>
      <trkpt lat="44.071574555709958" lon="9.923866409808397">
        <ele>214.59</ele>
        <time>2015-08-28T08:33:32Z</time>
      </trkpt>
      <trkpt lat="44.071698943153024" lon="9.923827685415745">
        <ele>217.63999999999999</ele>
        <time>2015-08-28T08:33:49Z</time>
      </trkpt>
      <trkpt lat="44.071845961734653" lon="9.923863224685192">
        <ele>220.16999999999999</ele>
        <time>2015-08-28T08:34:09Z</time>
      </trkpt>
      <trkpt lat="44.07199926674366" lon="9.923857189714909">
        <ele>223.16</ele>
        <time>2015-08-28T08:34:32Z</time>
      </trkpt>
      <trkpt lat="44.07205886207521" lon="9.923863224685192">
        <ele>224.53999999999999</ele>
        <time>2015-08-28T08:34:49Z</time>
      </trkpt>
      <trkpt lat="44.072096329182386" lon="9.923981409519911">
        <ele>227.87</ele>
        <time>2015-08-28T08:35:04Z</time>
      </trkpt>
      <trkpt lat="44.072200516238809" lon="9.924124656245112">
        <ele>230.12</ele>
        <time>2015-08-28T08:35:21Z</time>
      </trkpt>
      <trkpt lat="44.072351725772023" lon="9.924171259626746">
        <ele>232.40000000000001</ele>
        <time>2015-08-28T08:35:38Z</time>
      </trkpt>
      <trkpt lat="44.072482399642467" lon="9.924211828038096">
        <ele>234.59999999999999</ele>
        <time>2015-08-28T08:35:53Z</time>
      </trkpt>
      <trkpt lat="44.072548700496554" lon="9.924347531050444">
        <ele>236.31</ele>
        <time>2015-08-28T08:36:07Z</time>
      </trkpt>
      <trkpt lat="44.072636291384697" lon="9.924528915435076">
        <ele>238.02000000000001</ele>
        <time>2015-08-28T08:36:25Z</time>
      </trkpt>
      <trkpt lat="44.072740394622087" lon="9.92468548938632">
        <ele>240.03999999999999</ele>
        <time>2015-08-28T08:36:42Z</time>
      </trkpt>
      <trkpt lat="44.072775011882186" lon="9.924763608723879">
        <ele>240.97</ele>
        <time>2015-08-28T08:37:04Z</time>
      </trkpt>
      <trkpt lat="44.072819855064154" lon="9.924898976460099">
        <ele>244.22999999999999</ele>
        <time>2015-08-28T08:37:22Z</time>
      </trkpt>
      <trkpt lat="44.072859669104218" lon="9.925057981163263">
        <ele>247.44</ele>
        <time>2015-08-28T08:37:42Z</time>
      </trkpt>
      <trkpt lat="44.072871403768659" lon="9.925162922590971">
        <ele>250.47</ele>
        <time>2015-08-28T08:37:57Z</time>
      </trkpt>
      <trkpt lat="44.072883306071162" lon="9.925360400229693">
        <ele>253.62</ele>
        <time>2015-08-28T08:38:18Z</time>
      </trkpt>
      <trkpt lat="44.072889843955636" lon="9.925536252558231">
        <ele>255.71000000000001</ele>
        <time>2015-08-28T08:38:34Z</time>
      </trkpt>
      <trkpt lat="44.072888419032097" lon="9.925736747682095">
        <ele>258.55000000000001</ele>
        <time>2015-08-28T08:38:54Z</time>
      </trkpt>
      <trkpt lat="44.072854556143284" lon="9.925867840647697">
        <ele>261.74000000000001</ele>
        <time>2015-08-28T08:39:12Z</time>
      </trkpt>
      <trkpt lat="44.072787333279848" lon="9.925995413213968">
        <ele>264.94999999999999</ele>
        <time>2015-08-28T08:39:29Z</time>
      </trkpt>
      <trkpt lat="44.072757996618748" lon="9.926094487309456">
        <ele>265.99000000000001</ele>
        <time>2015-08-28T08:39:44Z</time>
      </trkpt>
      <trkpt lat="44.072775850072503" lon="9.926182916387916">
        <ele>266.38</ele>
        <time>2015-08-28T08:40:05Z</time>
      </trkpt>
      <trkpt lat="44.072827901691198" lon="9.926240667700768">
        <ele>269.06</ele>
        <time>2015-08-28T08:40:22Z</time>
      </trkpt>
      <trkpt lat="44.072939213365316" lon="9.926294898614287">
        <ele>272.12</ele>
        <time>2015-08-28T08:40:43Z</time>
      </trkpt>
      <trkpt lat="44.07296041958034" lon="9.926426243036985">
        <ele>275.18000000000001</ele>
        <time>2015-08-28T08:41:01Z</time>
      </trkpt>
      <trkpt lat="44.072994953021407" lon="9.926560772582889">
        <ele>278.42000000000002</ele>
        <time>2015-08-28T08:41:21Z</time>
      </trkpt>
      <trkpt lat="44.073021356016397" lon="9.926739139482379">
        <ele>281.48000000000002</ele>
        <time>2015-08-28T08:41:42Z</time>
      </trkpt>
      <trkpt lat="44.072999060153961" lon="9.926899066194892">
        <ele>284.27999999999997</ele>
        <time>2015-08-28T08:42:01Z</time>
      </trkpt>
      <trkpt lat="44.072952289134264" lon="9.927097633481026">
        <ele>287.29000000000002</ele>
        <time>2015-08-28T08:42:23Z</time>
      </trkpt>
      <trkpt lat="44.072924377396703" lon="9.927264684811235">
        <ele>290.31</ele>
        <time>2015-08-28T08:42:42Z</time>
      </trkpt>
      <trkpt lat="44.072891268879175" lon="9.927410613745451">
        <ele>292.17000000000002</ele>
        <time>2015-08-28T08:42:59Z</time>
      </trkpt>
      <trkpt lat="44.072851371020079" lon="9.92758646607399">
        <ele>294.72000000000003</ele>
        <time>2015-08-28T08:43:18Z</time>
      </trkpt>
      <trkpt lat="44.07283091917634" lon="9.927768521010876">
        <ele>297.11000000000001</ele>
        <time>2015-08-28T08:43:38Z</time>
      </trkpt>
      <trkpt lat="44.072790686041117" lon="9.927971949800849">
        <ele>299.75</ele>
        <time>2015-08-28T08:44:00Z</time>
      </trkpt>
      <trkpt lat="44.072754811495543" lon="9.928148472681642">
        <ele>301.44999999999999</ele>
        <time>2015-08-28T08:44:21Z</time>
      </trkpt>
      <trkpt lat="44.072758750990033" lon="9.928419124335051">
        <ele>304</ele>
        <time>2015-08-28T08:44:44Z</time>
      </trkpt>
      <trkpt lat="44.072794960811734" lon="9.928731853142381">
        <ele>305.57999999999998</ele>
        <time>2015-08-28T08:45:06Z</time>
      </trkpt>
      <trkpt lat="44.072818011045456" lon="9.928924301639199">
        <ele>306.44</ele>
        <time>2015-08-28T08:45:24Z</time>
      </trkpt>
      <trkpt lat="44.072825387120247" lon="9.929145751520991">
        <ele>304.98000000000002</ele>
        <time>2015-08-28T08:45:41Z</time>
      </trkpt>
      <trkpt lat="44.072893867269158" lon="9.929430484771729">
        <ele>304.81999999999999</ele>
        <time>2015-08-28T08:46:04Z</time>
      </trkpt>
      <trkpt lat="44.07297165133059" lon="9.929624609649181">
        <ele>304.74000000000001</ele>
        <time>2015-08-28T08:46:21Z</time>
      </trkpt>
      <trkpt lat="44.07302051782608" lon="9.929871372878552">
        <ele>304.88</ele>
        <time>2015-08-28T08:46:45Z</time>
      </trkpt>
      <trkpt lat="44.073035437613726" lon="9.930111095309258">
        <ele>305.75999999999999</ele>
        <time>2015-08-28T08:47:05Z</time>
      </trkpt>
      <trkpt lat="44.073078772053123" lon="9.930373867973685">
        <ele>307.63999999999999</ele>
        <time>2015-08-28T08:47:28Z</time>
      </trkpt>
      <trkpt lat="44.073095871135592" lon="9.930699001997709">
        <ele>309.95999999999998</ele>
        <time>2015-08-28T08:47:51Z</time>
      </trkpt>
      <trkpt lat="44.073093608021736" lon="9.931005528196693">
        <ele>311.30000000000001</ele>
        <time>2015-08-28T08:48:13Z</time>
      </trkpt>
      <trkpt lat="44.073128728196025" lon="9.931288668885827">
        <ele>312.94</ele>
        <time>2015-08-28T08:48:37Z</time>
      </trkpt>
      <trkpt lat="44.073137193918228" lon="9.931570133194327">
        <ele>314.56</ele>
        <time>2015-08-28T08:48:57Z</time>
      </trkpt>
      <trkpt lat="44.073216989636421" lon="9.931824607774615">
        <ele>315.63</ele>
        <time>2015-08-28T08:49:17Z</time>
      </trkpt>
      <trkpt lat="44.073243141174316" lon="9.931986965239048">
        <ele>316.17000000000002</ele>
        <time>2015-08-28T08:49:28Z</time>
      </trkpt>
      <trkpt lat="44.073308184742928" lon="9.932140856981278">
        <ele>317.58999999999997</ele>
        <time>2015-08-28T08:49:48Z</time>
      </trkpt>
      <trkpt lat="44.073325451463461" lon="9.93208134546876">
        <ele>317.04000000000002</ele>
        <time>2015-08-28T08:50:11Z</time>
      </trkpt>
      <trkpt lat="44.073323523625731" lon="9.932102635502815">
        <ele>317.17000000000002</ele>
        <time>2015-08-28T08:50:31Z</time>
      </trkpt>
      <trkpt lat="44.073312962427735" lon="9.932196261361241">
        <ele>316.06999999999999</ele>
        <time>2015-08-28T08:51:15Z</time>
      </trkpt>
      <trkpt lat="44.073328301310539" lon="9.932174049317837">
        <ele>316.80000000000001</ele>
        <time>2015-08-28T08:51:35Z</time>
      </trkpt>
      <trkpt lat="44.073429722338915" lon="9.932180000469089">
        <ele>317.50999999999999</ele>
        <time>2015-08-28T08:51:54Z</time>
      </trkpt>
      <trkpt lat="44.07352427020669" lon="9.932322660461068">
        <ele>318.54000000000002</ele>
        <time>2015-08-28T08:52:30Z</time>
      </trkpt>
      <trkpt lat="44.073569783940911" lon="9.932624073699117">
        <ele>320.49000000000001</ele>
        <time>2015-08-28T08:52:52Z</time>
      </trkpt>
      <trkpt lat="44.073623009026051" lon="9.932828089222312">
        <ele>323.67000000000002</ele>
        <time>2015-08-28T08:53:11Z</time>
      </trkpt>
      <trkpt lat="44.073709594085813" lon="9.932964546605945">
        <ele>326.67000000000002</ele>
        <time>2015-08-28T08:53:29Z</time>
      </trkpt>
      <trkpt lat="44.073824258521199" lon="9.933105111122131">
        <ele>329.37</ele>
        <time>2015-08-28T08:53:49Z</time>
      </trkpt>
      <trkpt lat="44.073945712298155" lon="9.933213237673044">
        <ele>331.92000000000002</ele>
        <time>2015-08-28T08:54:08Z</time>
      </trkpt>
      <trkpt lat="44.074041601270437" lon="9.933335278183222">
        <ele>335.13</ele>
        <time>2015-08-28T08:54:28Z</time>
      </trkpt>
      <trkpt lat="44.07407202757895" lon="9.93345589376986">
        <ele>337.48000000000002</ele>
        <time>2015-08-28T08:54:49Z</time>
      </trkpt>
      <trkpt lat="44.074135310947895" lon="9.933604840189219">
        <ele>340.63999999999999</ele>
        <time>2015-08-28T08:55:06Z</time>
      </trkpt>
      <trkpt lat="44.074175460264087" lon="9.933757977560163">
        <ele>343.30000000000001</ele>
        <time>2015-08-28T08:55:26Z</time>
      </trkpt>
      <trkpt lat="44.074146961793303" lon="9.933922681957483">
        <ele>346.30000000000001</ele>
        <time>2015-08-28T08:55:43Z</time>
      </trkpt>
      <trkpt lat="44.074134053662419" lon="9.934103060513735">
        <ele>349.30000000000001</ele>
        <time>2015-08-28T08:56:05Z</time>
      </trkpt>
      <trkpt lat="44.074120726436377" lon="9.934247396886349">
        <ele>352.31999999999999</ele>
        <time>2015-08-28T08:56:23Z</time>
      </trkpt>
      <trkpt lat="44.074196415022016" lon="9.934377651661634">
        <ele>354.08999999999997</ele>
        <time>2015-08-28T08:56:44Z</time>
      </trkpt>
      <trkpt lat="44.074274701997638" lon="9.934464823454619">
        <ele>353.22000000000003</ele>
        <time>2015-08-28T08:57:02Z</time>
      </trkpt>
      <trkpt lat="44.074300937354565" lon="9.934504386037588">
        <ele>352.19</ele>
        <time>2015-08-28T08:57:21Z</time>
      </trkpt>
      <trkpt lat="44.074297416955233" lon="9.934700606390834">
        <ele>352.35000000000002</ele>
        <time>2015-08-28T08:57:42Z</time>
      </trkpt>
      <trkpt lat="44.074320467188954" lon="9.934967570006847">
        <ele>353.76999999999998</ele>
        <time>2015-08-28T08:58:02Z</time>
      </trkpt>
      <trkpt lat="44.074375201016665" lon="9.935294548049569">
        <ele>354.75</ele>
        <time>2015-08-28T08:58:23Z</time>
      </trkpt>
      <trkpt lat="44.074405208230019" lon="9.935552040114999">
        <ele>355.35000000000002</ele>
        <time>2015-08-28T08:58:40Z</time>
      </trkpt>
      <trkpt lat="44.074516100808978" lon="9.935731496661902">
        <ele>356.77999999999997</ele>
        <time>2015-08-28T08:59:01Z</time>
      </trkpt>
      <trkpt lat="44.074644092470407" lon="9.93591564707458">
        <ele>357.72000000000003</ele>
        <time>2015-08-28T08:59:18Z</time>
      </trkpt>
      <trkpt lat="44.074741657823324" lon="9.936017319560051">
        <ele>358.76999999999998</ele>
        <time>2015-08-28T08:59:36Z</time>
      </trkpt>
      <trkpt lat="44.074781220406294" lon="9.936203146353364">
        <ele>359.38999999999999</ele>
        <time>2015-08-28T08:59:52Z</time>
      </trkpt>
      <trkpt lat="44.074812401086092" lon="9.936407916247845">
        <ele>359.72000000000003</ele>
        <time>2015-08-28T09:00:07Z</time>
      </trkpt>
      <trkpt lat="44.07479664310813" lon="9.936549067497253">
        <ele>359.63999999999999</ele>
        <time>2015-08-28T09:00:23Z</time>
      </trkpt>
      <trkpt lat="44.074762277305126" lon="9.936687871813774">
        <ele>360.82999999999998</ele>
        <time>2015-08-28T09:00:36Z</time>
      </trkpt>
      <trkpt lat="44.074622802436352" lon="9.936936479061842">
        <ele>362.19999999999999</ele>
        <time>2015-08-28T09:00:56Z</time>
      </trkpt>
      <trkpt lat="44.07462221570313" lon="9.937064470723271">
        <ele>362.32999999999998</ele>
        <time>2015-08-28T09:01:16Z</time>
      </trkpt>
      <trkpt lat="44.074638308957219" lon="9.937229175120592">
        <ele>362.56999999999999</ele>
        <time>2015-08-28T09:01:30Z</time>
      </trkpt>
      <trkpt lat="44.074618108570576" lon="9.937412906438112">
        <ele>362.18000000000001</ele>
        <time>2015-08-28T09:01:45Z</time>
      </trkpt>
      <trkpt lat="44.074603440240026" lon="9.937555734068155">
        <ele>361.47000000000003</ele>
        <time>2015-08-28T09:02:01Z</time>
      </trkpt>
      <trkpt lat="44.074578881263733" lon="9.937703339383006">
        <ele>360.58999999999997</ele>
        <time>2015-08-28T09:02:20Z</time>
      </trkpt>
      <trkpt lat="44.07455038279295" lon="9.937737872824073">
        <ele>359.69999999999999</ele>
        <time>2015-08-28T09:02:38Z</time>
      </trkpt>
      <trkpt lat="44.074452146887779" lon="9.937812052667141">
        <ele>360.44999999999999</ele>
        <time>2015-08-28T09:03:04Z</time>
      </trkpt>
      <trkpt lat="44.074343098327518" lon="9.938005926087499">
        <ele>361.31</ele>
        <time>2015-08-28T09:03:20Z</time>
      </trkpt>
      <trkpt lat="44.074333878234029" lon="9.938225196674466">
        <ele>361.80000000000001</ele>
        <time>2015-08-28T09:03:34Z</time>
      </trkpt>
      <trkpt lat="44.074307139962912" lon="9.938451927155256">
        <ele>361.88999999999999</ele>
        <time>2015-08-28T09:03:49Z</time>
      </trkpt>
      <trkpt lat="44.074245281517506" lon="9.938614284619689">
        <ele>362.87</ele>
        <time>2015-08-28T09:04:03Z</time>
      </trkpt>
      <trkpt lat="44.074089294299483" lon="9.938708748668432">
        <ele>363.69999999999999</ele>
        <time>2015-08-28T09:04:19Z</time>
      </trkpt>
      <trkpt lat="44.073981586843729" lon="9.938767421990633">
        <ele>363.50999999999999</ele>
        <time>2015-08-28T09:04:38Z</time>
      </trkpt>
      <trkpt lat="44.073849571868777" lon="9.938751747831702">
        <ele>364.38</ele>
        <time>2015-08-28T09:04:58Z</time>
      </trkpt>
      <trkpt lat="44.073631139472127" lon="9.93866759352386">
        <ele>364.64999999999998</ele>
        <time>2015-08-28T09:05:18Z</time>
      </trkpt>
      <trkpt lat="44.073484539985657" lon="9.938575895503163">
        <ele>364.60000000000002</ele>
        <time>2015-08-28T09:05:31Z</time>
      </trkpt>
      <trkpt lat="44.073318243026733" lon="9.938507499173284">
        <ele>364.44999999999999</ele>
        <time>2015-08-28T09:05:45Z</time>
      </trkpt>
      <trkpt lat="44.073285972699523" lon="9.93845259770751">
        <ele>364.13999999999999</ele>
        <time>2015-08-28T09:06:00Z</time>
      </trkpt>
      <trkpt lat="44.073269376531243" lon="9.938375484198332">
        <ele>363.91000000000003</ele>
        <time>2015-08-28T09:06:16Z</time>
      </trkpt>
      <trkpt lat="44.073265101760626" lon="9.938187729567289">
        <ele>364.94</ele>
        <time>2015-08-28T09:06:31Z</time>
      </trkpt>
      <trkpt lat="44.07320860773325" lon="9.938102569431067">
        <ele>364.81</ele>
        <time>2015-08-28T09:06:49Z</time>
      </trkpt>
      <trkpt lat="44.073030995205045" lon="9.938186137005687">
        <ele>365.35000000000002</ele>
        <time>2015-08-28T09:07:11Z</time>
      </trkpt>
      <trkpt lat="44.07282211817801" lon="9.938240954652429">
        <ele>367.30000000000001</ele>
        <time>2015-08-28T09:07:31Z</time>
      </trkpt>
      <trkpt lat="44.072644421830773" lon="9.938300382345915">
        <ele>367.68000000000001</ele>
        <time>2015-08-28T09:07:48Z</time>
      </trkpt>
      <trkpt lat="44.072511652484536" lon="9.938399037346244">
        <ele>369.31</ele>
        <time>2015-08-28T09:08:04Z</time>
      </trkpt>
      <trkpt lat="44.072341416031122" lon="9.938548905774951">
        <ele>372.25999999999999</ele>
        <time>2015-08-28T09:08:26Z</time>
      </trkpt>
      <trkpt lat="44.072228595614433" lon="9.938718723133206">
        <ele>373.61000000000001</ele>
        <time>2015-08-28T09:08:46Z</time>
      </trkpt>
      <trkpt lat="44.072126923128963" lon="9.938938245177269">
        <ele>373.75</ele>
        <time>2015-08-28T09:09:05Z</time>
      </trkpt>
      <trkpt lat="44.072020305320621" lon="9.939226666465402">
        <ele>373.83999999999997</ele>
        <time>2015-08-28T09:09:24Z</time>
      </trkpt>
      <trkpt lat="44.071846967563033" lon="9.939578371122479">
        <ele>373.88999999999999</ele>
        <time>2015-08-28T09:09:46Z</time>
      </trkpt>
      <trkpt lat="44.071696009486914" lon="9.93982563726604">
        <ele>373.74000000000001</ele>
        <time>2015-08-28T09:10:04Z</time>
      </trkpt>
      <trkpt lat="44.071630965918303" lon="9.940017834305763">
        <ele>373.83999999999997</ele>
        <time>2015-08-28T09:10:19Z</time>
      </trkpt>
      <trkpt lat="44.07153164036572" lon="9.94018916040659">
        <ele>374.01999999999998</ele>
        <time>2015-08-28T09:10:34Z</time>
      </trkpt>
      <trkpt lat="44.071363499388099" lon="9.94031279347837">
        <ele>373.33999999999997</ele>
        <time>2015-08-28T09:10:50Z</time>
      </trkpt>
      <trkpt lat="44.071224108338356" lon="9.940359983593226">
        <ele>372.56</ele>
        <time>2015-08-28T09:11:04Z</time>
      </trkpt>
      <trkpt lat="44.071066528558731" lon="9.940339615568519">
        <ele>372.94999999999999</ele>
        <time>2015-08-28T09:11:22Z</time>
      </trkpt>
      <trkpt lat="44.070853041484952" lon="9.940296616405249">
        <ele>373.25</ele>
        <time>2015-08-28T09:11:44Z</time>
      </trkpt>
      <trkpt lat="44.070616336539388" lon="9.940223442390561">
        <ele>372.91000000000003</ele>
        <time>2015-08-28T09:12:05Z</time>
      </trkpt>
      <trkpt lat="44.070411399006844" lon="9.940030407160521">
        <ele>373.05000000000001</ele>
        <time>2015-08-28T09:12:27Z</time>
      </trkpt>
      <trkpt lat="44.070200510323048" lon="9.939860086888075">
        <ele>372.5</ele>
        <time>2015-08-28T09:12:48Z</time>
      </trkpt>
      <trkpt lat="44.070014096796513" lon="9.939712900668383">
        <ele>372.04000000000002</ele>
        <time>2015-08-28T09:13:08Z</time>
      </trkpt>
      <trkpt lat="44.069838579744101" lon="9.939588429406285">
        <ele>371.36000000000001</ele>
        <time>2015-08-28T09:13:23Z</time>
      </trkpt>
      <trkpt lat="44.069651747122407" lon="9.939582645893097">
        <ele>369.64999999999998</ele>
        <time>2015-08-28T09:13:41Z</time>
      </trkpt>
      <trkpt lat="44.069584021344781" lon="9.939636457711458">
        <ele>369.55000000000001</ele>
        <time>2015-08-28T09:14:05Z</time>
      </trkpt>
      <trkpt lat="44.069391405209899" lon="9.939598487690091">
        <ele>369.60000000000002</ele>
        <time>2015-08-28T09:14:24Z</time>
      </trkpt>
      <trkpt lat="44.069234244525433" lon="9.939642744138837">
        <ele>369.83999999999997</ele>
        <time>2015-08-28T09:14:39Z</time>
      </trkpt>
      <trkpt lat="44.069139612838626" lon="9.939713152125478">
        <ele>370.72000000000003</ele>
        <time>2015-08-28T09:14:55Z</time>
      </trkpt>
      <trkpt lat="44.069066103547812" lon="9.939752630889416">
        <ele>371.64999999999998</ele>
        <time>2015-08-28T09:15:10Z</time>
      </trkpt>
      <trkpt lat="44.068989995867014" lon="9.939812729135156">
        <ele>371.88</ele>
        <time>2015-08-28T09:15:30Z</time>
      </trkpt>
      <trkpt lat="44.068861752748489" lon="9.939934266731143">
        <ele>373.37</ele>
        <time>2015-08-28T09:15:48Z</time>
      </trkpt>
      <trkpt lat="44.068734347820282" lon="9.940038537606597">
        <ele>375.30000000000001</ele>
        <time>2015-08-28T09:16:03Z</time>
      </trkpt>
      <trkpt lat="44.068619515746832" lon="9.940204247832298">
        <ele>376.57999999999998</ele>
        <time>2015-08-28T09:16:22Z</time>
      </trkpt>
      <trkpt lat="44.068516669794917" lon="9.940281780436635">
        <ele>377.72000000000003</ele>
        <time>2015-08-28T09:16:37Z</time>
      </trkpt>
      <trkpt lat="44.068414997309446" lon="9.940372640267015">
        <ele>378.76999999999998</ele>
        <time>2015-08-28T09:16:50Z</time>
      </trkpt>
      <trkpt lat="44.068298656493425" lon="9.94042276404798">
        <ele>379.12</ele>
        <time>2015-08-28T09:17:06Z</time>
      </trkpt>
      <trkpt lat="44.068190278485417" lon="9.940337268635631">
        <ele>376.81999999999999</ele>
        <time>2015-08-28T09:17:26Z</time>
      </trkpt>
      <trkpt lat="44.068023143336177" lon="9.940216150134802">
        <ele>374.56</ele>
        <time>2015-08-28T09:17:43Z</time>
      </trkpt>
      <trkpt lat="44.067861959338188" lon="9.940327629446983">
        <ele>373.60000000000002</ele>
        <time>2015-08-28T09:17:58Z</time>
      </trkpt>
      <trkpt lat="44.067700942978263" lon="9.940415471792221">
        <ele>372.30000000000001</ele>
        <time>2015-08-28T09:18:13Z</time>
      </trkpt>
      <trkpt lat="44.067606898024678" lon="9.94052778929472">
        <ele>372.20999999999998</ele>
        <time>2015-08-28T09:18:25Z</time>
      </trkpt>
      <trkpt lat="44.06748678535223" lon="9.940702971071005">
        <ele>371.63</ele>
        <time>2015-08-28T09:18:40Z</time>
      </trkpt>
      <trkpt lat="44.067402798682451" lon="9.940772205591202">
        <ele>370.13999999999999</ele>
        <time>2015-08-28T09:18:51Z</time>
      </trkpt>
      <trkpt lat="44.067295342683792" lon="9.940933641046286">
        <ele>368.68000000000001</ele>
        <time>2015-08-28T09:19:06Z</time>
      </trkpt>
      <trkpt lat="44.067190065979958" lon="9.941111421212554">
        <ele>367.75</ele>
        <time>2015-08-28T09:19:23Z</time>
      </trkpt>
      <trkpt lat="44.067052351310849" lon="9.941201778128743">
        <ele>366.10000000000002</ele>
        <time>2015-08-28T09:19:38Z</time>
      </trkpt>
      <trkpt lat="44.066901560872793" lon="9.94129934348166">
        <ele>363.32999999999998</ele>
        <time>2015-08-28T09:19:55Z</time>
      </trkpt>
      <trkpt lat="44.066761834546924" lon="9.941445020958781">
        <ele>360.70999999999998</ele>
        <time>2015-08-28T09:20:13Z</time>
      </trkpt>
      <trkpt lat="44.066662844270468" lon="9.941563373431563">
        <ele>357.68000000000001</ele>
        <time>2015-08-28T09:20:29Z</time>
      </trkpt>
      <trkpt lat="44.066547509282827" lon="9.941659765318036">
        <ele>354.63</ele>
        <time>2015-08-28T09:20:46Z</time>
      </trkpt>
      <trkpt lat="44.066387079656124" lon="9.941773256286979">
        <ele>351.49000000000001</ele>
        <time>2015-08-28T09:21:08Z</time>
      </trkpt>
      <trkpt lat="44.0662398096174" lon="9.941763281822205">
        <ele>349.22000000000003</ele>
        <time>2015-08-28T09:21:27Z</time>
      </trkpt>
      <trkpt lat="44.066094635054469" lon="9.941775016486645">
        <ele>346.02999999999997</ele>
        <time>2015-08-28T09:21:45Z</time>
      </trkpt>
      <trkpt lat="44.065919034183025" lon="9.941803850233555">
        <ele>344.49000000000001</ele>
        <time>2015-08-28T09:22:02Z</time>
      </trkpt>
      <trkpt lat="44.065801100805402" lon="9.941836204379797">
        <ele>344.63999999999999</ele>
        <time>2015-08-28T09:22:17Z</time>
      </trkpt>
      <trkpt lat="44.065638827160001" lon="9.941912060603499">
        <ele>344.91000000000003</ele>
        <time>2015-08-28T09:22:34Z</time>
      </trkpt>
      <trkpt lat="44.065483175218105" lon="9.941994873806834">
        <ele>345.77999999999997</ele>
        <time>2015-08-28T09:22:49Z</time>
      </trkpt>
      <trkpt lat="44.065323164686561" lon="9.942109035328031">
        <ele>347.07999999999998</ele>
        <time>2015-08-28T09:23:06Z</time>
      </trkpt>
      <trkpt lat="44.065181761980057" lon="9.942181119695306">
        <ele>348.13</ele>
        <time>2015-08-28T09:23:21Z</time>
      </trkpt>
      <trkpt lat="44.065043795853853" lon="9.942232416942716">
        <ele>349.33999999999997</ele>
        <time>2015-08-28T09:23:35Z</time>
      </trkpt>
      <trkpt lat="44.0649170614779" lon="9.942292766645551">
        <ele>350.04000000000002</ele>
        <time>2015-08-28T09:23:51Z</time>
      </trkpt>
      <trkpt lat="44.064775910228491" lon="9.942364851012826">
        <ele>350.02999999999997</ele>
        <time>2015-08-28T09:24:07Z</time>
      </trkpt>
      <trkpt lat="44.064589748159051" lon="9.942384213209152">
        <ele>348.27999999999997</ele>
        <time>2015-08-28T09:24:27Z</time>
      </trkpt>
      <trkpt lat="44.064406435936689" lon="9.942434085533023">
        <ele>347.61000000000001</ele>
        <time>2015-08-28T09:24:44Z</time>
      </trkpt>
      <trkpt lat="44.064329490065575" lon="9.942408436909318">
        <ele>348.14999999999998</ele>
        <time>2015-08-28T09:24:59Z</time>
      </trkpt>
      <trkpt lat="44.064303925260901" lon="9.942424027249217">
        <ele>348.16000000000003</ele>
        <time>2015-08-28T09:25:18Z</time>
      </trkpt>
      <trkpt lat="44.06422664411366" lon="9.942241553217173">
        <ele>348.25</ele>
        <time>2015-08-28T09:25:34Z</time>
      </trkpt>
      <trkpt lat="44.06409865245223" lon="9.941984564065933">
        <ele>348.67000000000002</ele>
        <time>2015-08-28T09:25:52Z</time>
      </trkpt>
      <trkpt lat="44.064028412103653" lon="9.941816758364439">
        <ele>349.56</ele>
        <time>2015-08-28T09:26:09Z</time>
      </trkpt>
      <trkpt lat="44.063921878114343" lon="9.941733861342073">
        <ele>349.55000000000001</ele>
        <time>2015-08-28T09:33:13Z</time>
      </trkpt>
      <trkpt lat="44.063906455412507" lon="9.941837294027209">
        <ele>347.93000000000001</ele>
        <time>2015-08-28T09:33:32Z</time>
      </trkpt>
      <trkpt lat="44.063835628330708" lon="9.942070730030537">
        <ele>346.27999999999997</ele>
        <time>2015-08-28T09:33:48Z</time>
      </trkpt>
      <trkpt lat="44.06381718814373" lon="9.942146586254239">
        <ele>345.91000000000003</ele>
        <time>2015-08-28T09:34:07Z</time>
      </trkpt>
      <trkpt lat="44.063713252544403" lon="9.942289916798472">
        <ele>343.94</ele>
        <time>2015-08-28T09:34:21Z</time>
      </trkpt>
      <trkpt lat="44.063597917556763" lon="9.942501643672586">
        <ele>341.25999999999999</ele>
        <time>2015-08-28T09:34:38Z</time>
      </trkpt>
      <trkpt lat="44.063518792390823" lon="9.942645225673914">
        <ele>338.89999999999998</ele>
        <time>2015-08-28T09:34:56Z</time>
      </trkpt>
      <trkpt lat="44.063405636698008" lon="9.94283021427691">
        <ele>336.05000000000001</ele>
        <time>2015-08-28T09:35:12Z</time>
      </trkpt>
      <trkpt lat="44.063330199569464" lon="9.942985782399774">
        <ele>334</ele>
        <time>2015-08-28T09:35:28Z</time>
      </trkpt>
      <trkpt lat="44.063235484063625" lon="9.943078570067883">
        <ele>333.76999999999998</ele>
        <time>2015-08-28T09:35:40Z</time>
      </trkpt>
      <trkpt lat="44.063134733587503" lon="9.943240759894252">
        <ele>332.26999999999998</ele>
        <time>2015-08-28T09:35:55Z</time>
      </trkpt>
      <trkpt lat="44.063042365014553" lon="9.943326758220792">
        <ele>331.81999999999999</ele>
        <time>2015-08-28T09:36:08Z</time>
      </trkpt>
      <trkpt lat="44.062910601496696" lon="9.943549297749996">
        <ele>331.36000000000001</ele>
        <time>2015-08-28T09:36:26Z</time>
      </trkpt>
      <trkpt lat="44.062835248187184" lon="9.94360763579607">
        <ele>331.16000000000003</ele>
        <time>2015-08-28T09:36:42Z</time>
      </trkpt>
      <trkpt lat="44.062704406678677" lon="9.943776782602072">
        <ele>330.29000000000002</ele>
        <time>2015-08-28T09:36:59Z</time>
      </trkpt>
      <trkpt lat="44.062573900446296" lon="9.943941403180361">
        <ele>330.44999999999999</ele>
        <time>2015-08-28T09:37:14Z</time>
      </trkpt>
      <trkpt lat="44.06243534758687" lon="9.94408406317234">
        <ele>330.67000000000002</ele>
        <time>2015-08-28T09:37:29Z</time>
      </trkpt>
      <trkpt lat="44.062343314290047" lon="9.944272320717573">
        <ele>331.68000000000001</ele>
        <time>2015-08-28T09:37:46Z</time>
      </trkpt>
      <trkpt lat="44.062311630696058" lon="9.944350607693195">
        <ele>331.69</ele>
        <time>2015-08-28T09:38:04Z</time>
      </trkpt>
      <trkpt lat="44.062185231596231" lon="9.944309033453465">
        <ele>332.64999999999998</ele>
        <time>2015-08-28T09:38:19Z</time>
      </trkpt>
      <trkpt lat="44.061969146132469" lon="9.944410035386682">
        <ele>331.48000000000002</ele>
        <time>2015-08-28T09:38:40Z</time>
      </trkpt>
      <trkpt lat="44.061719700694084" lon="9.944424955174327">
        <ele>331.63999999999999</ele>
        <time>2015-08-28T09:39:04Z</time>
      </trkpt>
      <trkpt lat="44.061458017677069" lon="9.944463763386011">
        <ele>333.70999999999998</ele>
        <time>2015-08-28T09:39:28Z</time>
      </trkpt>
      <trkpt lat="44.061250062659383" lon="9.944509863853455">
        <ele>335.97000000000003</ele>
        <time>2015-08-28T09:39:47Z</time>
      </trkpt>
      <trkpt lat="44.06103640794754" lon="9.944474324584007">
        <ele>337.31999999999999</ele>
        <time>2015-08-28T09:40:08Z</time>
      </trkpt>
      <trkpt lat="44.060850329697132" lon="9.944400815293193">
        <ele>337.68000000000001</ele>
        <time>2015-08-28T09:40:25Z</time>
      </trkpt>
      <trkpt lat="44.060733485966921" lon="9.944338034838438">
        <ele>338.06</ele>
        <time>2015-08-28T09:40:45Z</time>
      </trkpt>
      <trkpt lat="44.060652852058411" lon="9.944322779774666">
        <ele>337.42000000000002</ele>
        <time>2015-08-28T09:41:03Z</time>
      </trkpt>
      <trkpt lat="44.060557968914509" lon="9.944333424791694">
        <ele>336.88999999999999</ele>
        <time>2015-08-28T09:41:25Z</time>
      </trkpt>
      <trkpt lat="44.060435425490141" lon="9.944402491673827">
        <ele>333.88</ele>
        <time>2015-08-28T09:41:40Z</time>
      </trkpt>
      <trkpt lat="44.060249598696828" lon="9.94443392381072">
        <ele>330.82999999999998</ele>
        <time>2015-08-28T09:42:00Z</time>
      </trkpt>
      <trkpt lat="44.060177430510521" lon="9.944627461954951">
        <ele>327.74000000000001</ele>
        <time>2015-08-28T09:42:18Z</time>
      </trkpt>
      <trkpt lat="44.060053043067455" lon="9.944888222962618">
        <ele>324.43000000000001</ele>
        <time>2015-08-28T09:42:36Z</time>
      </trkpt>
      <trkpt lat="44.05988959595561" lon="9.945006323978305">
        <ele>322</ele>
        <time>2015-08-28T09:42:52Z</time>
      </trkpt>
      <trkpt lat="44.059759676456451" lon="9.945067679509521">
        <ele>319.33999999999997</ele>
        <time>2015-08-28T09:43:08Z</time>
      </trkpt>
      <trkpt lat="44.059657668694854" lon="9.945142362266779">
        <ele>317.45999999999998</ele>
        <time>2015-08-28T09:43:27Z</time>
      </trkpt>
      <trkpt lat="44.0595499612391" lon="9.945131381973624">
        <ele>314.39999999999998</ele>
        <time>2015-08-28T09:43:42Z</time>
      </trkpt>
      <trkpt lat="44.059534873813391" lon="9.945003557950258">
        <ele>314.32999999999998</ele>
        <time>2015-08-28T09:43:53Z</time>
      </trkpt>
      <trkpt lat="44.059456922113895" lon="9.944840278476477">
        <ele>314.67000000000002</ele>
        <time>2015-08-28T09:44:09Z</time>
      </trkpt>
      <trkpt lat="44.059351645410061" lon="9.944772804155946">
        <ele>312.75999999999999</ele>
        <time>2015-08-28T09:44:25Z</time>
      </trkpt>
      <trkpt lat="44.059198759496212" lon="9.94466744363308">
        <ele>309.45999999999998</ele>
        <time>2015-08-28T09:44:46Z</time>
      </trkpt>
      <trkpt lat="44.059022320434451" lon="9.944596365094185">
        <ele>306.97000000000003</ele>
        <time>2015-08-28T09:45:06Z</time>
      </trkpt>
      <trkpt lat="44.058873625472188" lon="9.944548588246107">
        <ele>303.82999999999998</ele>
        <time>2015-08-28T09:45:25Z</time>
      </trkpt>
      <trkpt lat="44.05873155221343" lon="9.944482035934925">
        <ele>300.75</ele>
        <time>2015-08-28T09:45:41Z</time>
      </trkpt>
      <trkpt lat="44.058654522523284" lon="9.94442168623209">
        <ele>299.57999999999998</ele>
        <time>2015-08-28T09:46:00Z</time>
      </trkpt>
      <trkpt lat="44.058557460084558" lon="9.944432163611054">
        <ele>296.95999999999998</ele>
        <time>2015-08-28T09:46:19Z</time>
      </trkpt>
      <trkpt lat="44.058438185602427" lon="9.944543726742268">
        <ele>293.97000000000003</ele>
        <time>2015-08-28T09:46:39Z</time>
      </trkpt>
      <trkpt lat="44.058395186439157" lon="9.94460198096931">
        <ele>290.74000000000001</ele>
        <time>2015-08-28T09:46:54Z</time>
      </trkpt>
      <trkpt lat="44.058283036574721" lon="9.94467968121171">
        <ele>287.64999999999998</ele>
        <time>2015-08-28T09:47:11Z</time>
      </trkpt>
      <trkpt lat="44.058223273605108" lon="9.944689068943262">
        <ele>285.19</ele>
        <time>2015-08-28T09:47:21Z</time>
      </trkpt>
      <trkpt lat="44.058105507865548" lon="9.944705832749605">
        <ele>282.29000000000002</ele>
        <time>2015-08-28T09:47:41Z</time>
      </trkpt>
      <trkpt lat="44.058013893663883" lon="9.944708095863462">
        <ele>279.06</ele>
        <time>2015-08-28T09:47:56Z</time>
      </trkpt>
      <trkpt lat="44.057914735749364" lon="9.944700049236417">
        <ele>276.02999999999997</ele>
        <time>2015-08-28T09:48:10Z</time>
      </trkpt>
      <trkpt lat="44.057813063263893" lon="9.944703485816717">
        <ele>272.81999999999999</ele>
        <time>2015-08-28T09:48:29Z</time>
      </trkpt>
      <trkpt lat="44.057749612256885" lon="9.944725278764963">
        <ele>269.75</ele>
        <time>2015-08-28T09:48:42Z</time>
      </trkpt>
      <trkpt lat="44.057650957256556" lon="9.944769619032741">
        <ele>266.62</ele>
        <time>2015-08-28T09:49:03Z</time>
      </trkpt>
      <trkpt lat="44.05758080072701" lon="9.944797698408365">
        <ele>264.19</ele>
        <time>2015-08-28T09:49:29Z</time>
      </trkpt>
      <trkpt lat="44.057490862905979" lon="9.944785544648767">
        <ele>260.93000000000001</ele>
        <time>2015-08-28T09:49:48Z</time>
      </trkpt>
      <trkpt lat="44.057383742183447" lon="9.944816557690501">
        <ele>257.72000000000003</ele>
        <time>2015-08-28T09:50:02Z</time>
      </trkpt>
      <trkpt lat="44.057280141860247" lon="9.944858383387327">
        <ele>254.46000000000001</ele>
        <time>2015-08-28T09:50:18Z</time>
      </trkpt>
      <trkpt lat="44.05717620626092" lon="9.944911524653435">
        <ele>251.34</ele>
        <time>2015-08-28T09:50:32Z</time>
      </trkpt>
      <trkpt lat="44.057034216821194" lon="9.944922421127558">
        <ele>248.15000000000001</ele>
        <time>2015-08-28T09:50:45Z</time>
      </trkpt>
      <trkpt lat="44.056902620941401" lon="9.944987799972296">
        <ele>245.18000000000001</ele>
        <time>2015-08-28T09:51:03Z</time>
      </trkpt>
      <trkpt lat="44.056828105822206" lon="9.945009173825383">
        <ele>243.18000000000001</ele>
        <time>2015-08-28T09:51:18Z</time>
      </trkpt>
      <trkpt lat="44.056749064475298" lon="9.945130376145244">
        <ele>242.36000000000001</ele>
        <time>2015-08-28T09:51:49Z</time>
      </trkpt>
      <trkpt lat="44.056629287078977" lon="9.945306228473783">
        <ele>242.03</ele>
        <time>2015-08-28T09:52:05Z</time>
      </trkpt>
      <trkpt lat="44.05662702396512" lon="9.945351574569941">
        <ele>241.74000000000001</ele>
        <time>2015-08-28T09:52:18Z</time>
      </trkpt>
      <trkpt lat="44.056626269593835" lon="9.945359285920858" />
      <trkpt lat="44.05650045722723" lon="9.945401614531875">
        <ele>199.25999999999999</ele>
        <time>2015-06-01T08:40:46Z</time>
      </trkpt>
      <trkpt lat="44.056409513577819" lon="9.945472944527865">
        <ele>200.88999999999999</ele>
        <time>2015-06-01T08:40:31Z</time>
      </trkpt>
      <trkpt lat="44.056283868849277" lon="9.945607809349895">
        <ele>203.96000000000001</ele>
        <time>2015-06-01T08:40:11Z</time>
      </trkpt>
      <trkpt lat="44.0562101919204" lon="9.945755079388619">
        <ele>206.99000000000001</ele>
        <time>2015-06-01T08:39:53Z</time>
      </trkpt>
      <trkpt lat="44.056128468364477" lon="9.945922130718827">
        <ele>209.28</ele>
        <time>2015-06-01T08:39:35Z</time>
      </trkpt>
      <trkpt lat="44.056060826405883" lon="9.946151543408632">
        <ele>211.68000000000001</ele>
        <time>2015-06-01T08:39:16Z</time>
      </trkpt>
      <trkpt lat="44.05597910284996" lon="9.946431163698435">
        <ele>213.25</ele>
        <time>2015-06-01T08:38:58Z</time>
      </trkpt>
      <trkpt lat="44.055870389565825" lon="9.946688655763865">
        <ele>214.53999999999999</ele>
        <time>2015-06-01T08:38:40Z</time>
      </trkpt>
      <trkpt lat="44.055839627981186" lon="9.946918906643987">
        <ele>216.34</ele>
        <time>2015-06-01T08:38:23Z</time>
      </trkpt>
      <trkpt lat="44.055757485330105" lon="9.947128789499402">
        <ele>218.84999999999999</ele>
        <time>2015-06-01T08:38:05Z</time>
      </trkpt>
      <trkpt lat="44.055728148669004" lon="9.947235239669681">
        <ele>220.72999999999999</ele>
        <time>2015-06-01T08:37:52Z</time>
      </trkpt>
      <trkpt lat="44.05571180395782" lon="9.94735149666667">
        <ele>220.83000000000001</ele>
        <time>2015-06-01T08:37:38Z</time>
      </trkpt>
      <trkpt lat="44.055763855576515" lon="9.947555009275675">
        <ele>222.50999999999999</ele>
        <time>2015-06-01T08:37:18Z</time>
      </trkpt>
      <trkpt lat="44.055838203057647" lon="9.947822224348784">
        <ele>225.71000000000001</ele>
        <time>2015-06-01T08:36:59Z</time>
      </trkpt>
      <trkpt lat="44.055893439799547" lon="9.948057672008872">
        <ele>228.56</ele>
        <time>2015-06-01T08:36:41Z</time>
      </trkpt>
      <trkpt lat="44.055975750088692" lon="9.948285324499011">
        <ele>231.25</ele>
        <time>2015-06-01T08:36:22Z</time>
      </trkpt>
      <trkpt lat="44.056041799485683" lon="9.948503002524376">
        <ele>233.05000000000001</ele>
        <time>2015-06-01T08:36:05Z</time>
      </trkpt>
      <trkpt lat="44.056123020127416" lon="9.948689751327038">
        <ele>233.46000000000001</ele>
        <time>2015-06-01T08:35:51Z</time>
      </trkpt>
      <trkpt lat="44.056192003190517" lon="9.948885384947062">
        <ele>233.75</ele>
        <time>2015-06-01T08:35:34Z</time>
      </trkpt>
      <trkpt lat="44.056265680119395" lon="9.949148995801806">
        <ele>232.81</ele>
        <time>2015-06-01T08:35:16Z</time>
      </trkpt>
      <trkpt lat="44.056331729516387" lon="9.94933289475739">
        <ele>232.56</ele>
        <time>2015-06-01T08:35:02Z</time>
      </trkpt>
      <trkpt lat="44.056400628760457" lon="9.949558451771736">
        <ele>232.34999999999999</ele>
        <time>2015-06-01T08:34:45Z</time>
      </trkpt>
      <trkpt lat="44.056586623191833" lon="9.949827846139669">
        <ele>232.53</ele>
        <time>2015-06-01T08:34:26Z</time>
      </trkpt>
      <trkpt lat="44.056761302053928" lon="9.950041836127639">
        <ele>232.91</ele>
        <time>2015-06-01T08:34:09Z</time>
      </trkpt>
      <trkpt lat="44.056858280673623" lon="9.95012934319675">
        <ele>232.71000000000001</ele>
        <time>2015-06-01T08:33:54Z</time>
      </trkpt>
      <trkpt lat="44.056978225708008" lon="9.950365545228124">
        <ele>232.69999999999999</ele>
        <time>2015-06-01T08:33:34Z</time>
      </trkpt>
      <trkpt lat="44.057092973962426" lon="9.950573332607746">
        <ele>233.19999999999999</ele>
        <time>2015-06-01T08:33:18Z</time>
      </trkpt>
      <trkpt lat="44.057241249829531" lon="9.950964683666825">
        <ele>234.24000000000001</ele>
        <time>2015-06-01T08:32:52Z</time>
      </trkpt>
      <trkpt lat="44.057345688343048" lon="9.951229803264141">
        <ele>233.99000000000001</ele>
        <time>2015-06-01T08:32:32Z</time>
      </trkpt>
      <trkpt lat="44.057443253695965" lon="9.951547645032406">
        <ele>233.91</ele>
        <time>2015-06-01T08:32:10Z</time>
      </trkpt>
      <trkpt lat="44.057503687217832" lon="9.95178334414959">
        <ele>234</ele>
        <time>2015-06-01T08:31:53Z</time>
      </trkpt>
      <trkpt lat="44.057572586461902" lon="9.952048463746905">
        <ele>234.22</ele>
        <time>2015-06-01T08:31:35Z</time>
      </trkpt>
      <trkpt lat="44.057654393836856" lon="9.952320037409663">
        <ele>233.56999999999999</ele>
        <time>2015-06-01T08:31:16Z</time>
      </trkpt>
      <trkpt lat="44.057683730497956" lon="9.952615248039365">
        <ele>233.5</ele>
        <time>2015-06-01T08:30:56Z</time>
      </trkpt>
      <trkpt lat="44.057749947533011" lon="9.952915823087096">
        <ele>233.72</ele>
        <time>2015-06-01T08:30:34Z</time>
      </trkpt>
      <trkpt lat="44.057752378284931" lon="9.953199382871389">
        <ele>234.08000000000001</ele>
        <time>2015-06-01T08:30:15Z</time>
      </trkpt>
      <trkpt lat="44.05775330029428" lon="9.953517476096749">
        <ele>235.33000000000001</ele>
        <time>2015-06-01T08:29:51Z</time>
      </trkpt>
      <trkpt lat="44.05779923312366" lon="9.953761389479041">
        <ele>235.08000000000001</ele>
        <time>2015-06-01T08:29:32Z</time>
      </trkpt>
      <trkpt lat="44.057774171233177" lon="9.953969428315759">
        <ele>236.08000000000001</ele>
        <time>2015-06-01T08:29:14Z</time>
      </trkpt>
      <trkpt lat="44.057631092146039" lon="9.95400907471776">
        <ele>239.12</ele>
        <time>2015-06-01T08:28:57Z</time>
      </trkpt>
      <trkpt lat="44.057501507923007" lon="9.953996250405908">
        <ele>242.22</ele>
        <time>2015-06-01T08:28:41Z</time>
      </trkpt>
      <trkpt lat="44.057379802688956" lon="9.954008823260665">
        <ele>245.28999999999999</ele>
        <time>2015-06-01T08:28:21Z</time>
      </trkpt>
      <trkpt lat="44.057318279519677" lon="9.95396800339222">
        <ele>247.69</ele>
        <time>2015-06-01T08:28:04Z</time>
      </trkpt>
      <trkpt lat="44.057195484638214" lon="9.95394017547369">
        <ele>250.74000000000001</ele>
        <time>2015-06-01T08:27:47Z</time>
      </trkpt>
      <trkpt lat="44.057129267603159" lon="9.953945623710752">
        <ele>253.81</ele>
        <time>2015-06-01T08:27:30Z</time>
      </trkpt>
      <trkpt lat="44.056984428316355" lon="9.95400614105165">
        <ele>256.92000000000002</ele>
        <time>2015-06-01T08:27:13Z</time>
      </trkpt>
      <trkpt lat="44.056861801072955" lon="9.954076129943132">
        <ele>259.30000000000001</ele>
        <time>2015-06-01T08:26:55Z</time>
      </trkpt>
      <trkpt lat="44.056778736412525" lon="9.954296322539449">
        <ele>260.52999999999997</ele>
        <time>2015-06-01T08:26:37Z</time>
      </trkpt>
      <trkpt lat="44.056753925979137" lon="9.954528836533427">
        <ele>263.58999999999997</ele>
        <time>2015-06-01T08:26:18Z</time>
      </trkpt>
      <trkpt lat="44.056723834946752" lon="9.954807786270976">
        <ele>265.97000000000003</ele>
        <time>2015-06-01T08:25:59Z</time>
      </trkpt>
      <trkpt lat="44.056710172444582" lon="9.955078940838575">
        <ele>265.36000000000001</ele>
        <time>2015-06-01T08:25:38Z</time>
      </trkpt>
      <trkpt lat="44.056727271527052" lon="9.955283123999834">
        <ele>264.76999999999998</ele>
        <time>2015-06-01T08:25:19Z</time>
      </trkpt>
      <trkpt lat="44.056749818846583" lon="9.955423269420862">
        <ele>263.37</ele>
        <time>2015-06-01T08:25:00Z</time>
      </trkpt>
      <trkpt lat="44.056798685342073" lon="9.955736165866256">
        <ele>261.93000000000001</ele>
        <time>2015-06-01T08:24:41Z</time>
      </trkpt>
      <trkpt lat="44.056835733354092" lon="9.956007739529014">
        <ele>261.67000000000002</ele>
        <time>2015-06-01T08:24:21Z</time>
      </trkpt>
      <trkpt lat="44.056893903762102" lon="9.956273278221488">
        <ele>260.31999999999999</ele>
        <time>2015-06-01T08:24:00Z</time>
      </trkpt>
      <trkpt lat="44.056932209059596" lon="9.956499757245183">
        <ele>259.56</ele>
        <time>2015-06-01T08:23:43Z</time>
      </trkpt>
      <trkpt lat="44.056920390576124" lon="9.956662701442838">
        <ele>260.23000000000002</ele>
        <time>2015-06-01T08:23:23Z</time>
      </trkpt>
      <trkpt lat="44.056796589866281" lon="9.956749454140663">
        <ele>262.42000000000002</ele>
        <time>2015-06-01T08:23:08Z</time>
      </trkpt>
      <trkpt lat="44.056685110554099" lon="9.956792201846838">
        <ele>265.43000000000001</ele>
        <time>2015-06-01T08:22:52Z</time>
      </trkpt>
      <trkpt lat="44.056604476645589" lon="9.956885408610106">
        <ele>268.44999999999999</ele>
        <time>2015-06-01T08:22:35Z</time>
      </trkpt>
      <trkpt lat="44.056529626250267" lon="9.956927401944995">
        <ele>271.69999999999999</ele>
        <time>2015-06-01T08:22:18Z</time>
      </trkpt>
      <trkpt lat="44.056458212435246" lon="9.956924049183726">
        <ele>274.70999999999998</ele>
        <time>2015-06-01T08:22:02Z</time>
      </trkpt>
      <trkpt lat="44.056426528841257" lon="9.956923630088568">
        <ele>277.81</ele>
        <time>2015-06-01T08:21:50Z</time>
      </trkpt>
      <trkpt lat="44.056391324847937" lon="9.957037204876542">
        <ele>280.69999999999999</ele>
        <time>2015-06-01T08:21:31Z</time>
      </trkpt>
      <trkpt lat="44.056332483887672" lon="9.957098895683885">
        <ele>283.86000000000001</ele>
        <time>2015-06-01T08:21:12Z</time>
      </trkpt>
      <trkpt lat="44.056265344843268" lon="9.95712798088789">
        <ele>287.05000000000001</ele>
        <time>2015-06-01T08:20:56Z</time>
      </trkpt>
      <trkpt lat="44.056197535246611" lon="9.95713921263814">
        <ele>290.26999999999998</ele>
        <time>2015-06-01T08:20:43Z</time>
      </trkpt>
      <trkpt lat="44.056113129481673" lon="9.957139631733298">
        <ele>292.60000000000002</ele>
        <time>2015-06-01T08:20:23Z</time>
      </trkpt>
      <trkpt lat="44.056044900789857" lon="9.95711037889123">
        <ele>295.81</ele>
        <time>2015-06-01T08:20:08Z</time>
      </trkpt>
      <trkpt lat="44.055961668491364" lon="9.957291847094894">
        <ele>298.56999999999999</ele>
        <time>2015-06-01T08:19:49Z</time>
      </trkpt>
      <trkpt lat="44.055885225534439" lon="9.957409277558327">
        <ele>301.56999999999999</ele>
        <time>2015-06-01T08:19:35Z</time>
      </trkpt>
      <trkpt lat="44.055829402059317" lon="9.957666099071503">
        <ele>301.38</ele>
        <time>2015-06-01T08:19:13Z</time>
      </trkpt>
      <trkpt lat="44.055736446753144" lon="9.957824181765318">
        <ele>303.13</ele>
        <time>2015-06-01T08:18:53Z</time>
      </trkpt>
      <trkpt lat="44.055629158392549" lon="9.957942869514227">
        <ele>303.49000000000001</ele>
        <time>2015-06-01T08:18:35Z</time>
      </trkpt>
      <trkpt lat="44.055504268035293" lon="9.957982348278165">
        <ele>304.63</ele>
        <time>2015-06-01T08:18:21Z</time>
      </trkpt>
      <trkpt lat="44.055436793714762" lon="9.95793616399169">
        <ele>307.38999999999999</ele>
        <time>2015-06-01T08:18:03Z</time>
      </trkpt>
      <trkpt lat="44.055388765409589" lon="9.957821415737271">
        <ele>310.55000000000001</ele>
        <time>2015-06-01T08:17:47Z</time>
      </trkpt>
      <trkpt lat="44.055378036573529" lon="9.957741284742951">
        <ele>311.19999999999999</ele>
        <time>2015-06-01T08:17:28Z</time>
      </trkpt>
      <trkpt lat="44.055344006046653" lon="9.957583956420422">
        <ele>312.67000000000002</ele>
        <time>2015-06-01T08:17:12Z</time>
      </trkpt>
      <trkpt lat="44.055269742384553" lon="9.957401733845472">
        <ele>315.00999999999999</ele>
        <time>2015-06-01T08:16:52Z</time>
      </trkpt>
      <trkpt lat="44.055243004113436" lon="9.957260247319937">
        <ele>316.31</ele>
        <time>2015-06-01T08:16:35Z</time>
      </trkpt>
      <trkpt lat="44.055205369368196" lon="9.957244489341974">
        <ele>316.16000000000003</ele>
        <time>2015-06-01T08:16:05Z</time>
      </trkpt>
      <trkpt lat="44.055185755714774" lon="9.957250105217099">
        <ele>316.37</ele>
        <time>2015-06-01T08:15:40Z</time>
      </trkpt>
      <trkpt lat="44.055170500651002" lon="9.957265695556998">
        <ele>316.24000000000001</ele>
        <time>2015-06-01T08:15:19Z</time>
      </trkpt>
      <trkpt lat="44.055069666355848" lon="9.957342557609081">
        <ele>315.48000000000002</ele>
        <time>2015-06-01T08:15:03Z</time>
      </trkpt>
      <trkpt lat="44.055039407685399" lon="9.957445319741964">
        <ele>314.69999999999999</ele>
        <time>2015-06-01T08:14:49Z</time>
      </trkpt>
      <trkpt lat="44.055002275854349" lon="9.957634583115578">
        <ele>312.91000000000003</ele>
        <time>2015-06-01T08:14:30Z</time>
      </trkpt>
      <trkpt lat="44.05495835468173" lon="9.957670457661152">
        <ele>312.89999999999998</ele>
        <time>2015-06-01T08:14:13Z</time>
      </trkpt>
      <trkpt lat="44.054911751300097" lon="9.957624608650804">
        <ele>312.29000000000002</ele>
        <time>2015-06-01T08:13:59Z</time>
      </trkpt>
      <trkpt lat="44.054773868992925" lon="9.957468202337623">
        <ele>311.14999999999998</ele>
        <time>2015-06-01T08:13:42Z</time>
      </trkpt>
      <trkpt lat="44.05473648570478" lon="9.957370301708579">
        <ele>310.69</ele>
        <time>2015-06-01T08:13:26Z</time>
      </trkpt>
      <trkpt lat="44.054689630866051" lon="9.957324368879199">
        <ele>309.87</ele>
        <time>2015-06-01T08:13:03Z</time>
      </trkpt>
      <trkpt lat="44.054598854854703" lon="9.957379354164004">
        <ele>307</ele>
        <time>2015-06-01T08:12:42Z</time>
      </trkpt>
      <trkpt lat="44.054520148783922" lon="9.957444733008742">
        <ele>303.98000000000002</ele>
        <time>2015-06-01T08:12:22Z</time>
      </trkpt>
      <trkpt lat="44.054415626451373" lon="9.95744020678103">
        <ele>301.18000000000001</ele>
        <time>2015-06-01T08:12:02Z</time>
      </trkpt>
      <trkpt lat="44.054313283413649" lon="9.957541963085532">
        <ele>298.05000000000001</ele>
        <time>2015-06-01T08:11:43Z</time>
      </trkpt>
      <trkpt lat="44.0542121976614" lon="9.957663416862488">
        <ele>295.51999999999998</ele>
        <time>2015-06-01T08:11:22Z</time>
      </trkpt>
      <trkpt lat="44.05412863008678" lon="9.957780176773667">
        <ele>292.48000000000002</ele>
        <time>2015-06-01T08:11:03Z</time>
      </trkpt>
      <trkpt lat="44.054056378081441" lon="9.957905318588018">
        <ele>290.18000000000001</ele>
        <time>2015-06-01T08:10:45Z</time>
      </trkpt>
      <trkpt lat="44.053925117477775" lon="9.958029538393021">
        <ele>287.44</ele>
        <time>2015-06-01T08:10:24Z</time>
      </trkpt>
      <trkpt lat="44.053855547681451" lon="9.958193153142929">
        <ele>284.38999999999999</ele>
        <time>2015-06-01T08:10:04Z</time>
      </trkpt>
      <trkpt lat="44.053834928199649" lon="9.958337070420384">
        <ele>281.20999999999998</ele>
        <time>2015-06-01T08:09:46Z</time>
      </trkpt>
      <trkpt lat="44.053815566003323" lon="9.958382751792669">
        <ele>281.05000000000001</ele>
        <time>2015-06-01T08:09:31Z</time>
      </trkpt>
      <trkpt lat="44.053813386708498" lon="9.958446454256773">
        <ele>278.85000000000002</ele>
        <time>2015-06-01T08:09:09Z</time>
      </trkpt>
      <trkpt lat="44.053743649274111" lon="9.958559442311525">
        <ele>276.45999999999998</ele>
        <time>2015-06-01T08:08:46Z</time>
      </trkpt>
      <trkpt lat="44.053648849949241" lon="9.958694810047746">
        <ele>273.62</ele>
        <time>2015-06-01T08:08:26Z</time>
      </trkpt>
      <trkpt lat="44.053542735055089" lon="9.958786005154252">
        <ele>270.75999999999999</ele>
        <time>2015-06-01T08:08:06Z</time>
      </trkpt>
      <trkpt lat="44.053458413109183" lon="9.958872674033046">
        <ele>268.10000000000002</ele>
        <time>2015-06-01T08:07:48Z</time>
      </trkpt>
      <trkpt lat="44.053346179425716" lon="9.958977364003658">
        <ele>265.19</ele>
        <time>2015-06-01T08:07:26Z</time>
      </trkpt>
      <trkpt lat="44.053216930478811" lon="9.959130836650729">
        <ele>262.35000000000002</ele>
        <time>2015-06-01T08:07:06Z</time>
      </trkpt>
      <trkpt lat="44.053127160295844" lon="9.959239298477769">
        <ele>259.25</ele>
        <time>2015-06-01T08:06:49Z</time>
      </trkpt>
      <trkpt lat="44.053027834743261" lon="9.959293361753225">
        <ele>256.06</ele>
        <time>2015-06-01T08:06:26Z</time>
      </trkpt>
      <trkpt lat="44.052943680435419" lon="9.959370559081435">
        <ele>253.03</ele>
        <time>2015-06-01T08:05:59Z</time>
      </trkpt>
      <trkpt lat="44.052901184186339" lon="9.959503998979926">
        <ele>250</ele>
        <time>2015-06-01T08:05:38Z</time>
      </trkpt>
      <trkpt lat="44.052810491994023" lon="9.959600642323494">
        <ele>247.25</ele>
        <time>2015-06-01T08:05:15Z</time>
      </trkpt>
      <trkpt lat="44.052753578871489" lon="9.959712289273739">
        <ele>244.94</ele>
        <time>2015-06-01T08:04:56Z</time>
      </trkpt>
      <trkpt lat="44.052668837830424" lon="9.959811866283417">
        <ele>242.19999999999999</ele>
        <time>2015-06-01T08:04:38Z</time>
      </trkpt>
      <trkpt lat="44.052549647167325" lon="9.959953771904111">
        <ele>239.78</ele>
        <time>2015-06-01T08:04:20Z</time>
      </trkpt>
      <trkpt lat="44.052444705739617" lon="9.960127109661698">
        <ele>236.66</ele>
        <time>2015-06-01T08:04:00Z</time>
      </trkpt>
      <trkpt lat="44.052344793453813" lon="9.960224339738488">
        <ele>234.63</ele>
        <time>2015-06-01T08:03:40Z</time>
      </trkpt>
      <trkpt lat="44.052274972200394" lon="9.960342021659017">
        <ele>233.02000000000001</ele>
        <time>2015-06-01T08:03:22Z</time>
      </trkpt>
      <trkpt lat="44.052241360768676" lon="9.960511000826955">
        <ele>230.12</ele>
        <time>2015-06-01T08:03:04Z</time>
      </trkpt>
      <trkpt lat="44.052176903933287" lon="9.960640082135797">
        <ele>228.05000000000001</ele>
        <time>2015-06-01T08:02:42Z</time>
      </trkpt>
      <trkpt lat="44.052110016345978" lon="9.960751226171851">
        <ele>224.93000000000001</ele>
        <time>2015-06-01T08:02:26Z</time>
      </trkpt>
      <trkpt lat="44.051995938643813" lon="9.960826328024268">
        <ele>221.91</ele>
        <time>2015-06-01T08:02:07Z</time>
      </trkpt>
      <trkpt lat="44.051911868155003" lon="9.960900424048305">
        <ele>219.47</ele>
        <time>2015-06-01T08:01:52Z</time>
      </trkpt>
      <trkpt lat="44.051800724118948" lon="9.960989272221923">
        <ele>216.34999999999999</ele>
        <time>2015-06-01T08:01:34Z</time>
      </trkpt>
      <trkpt lat="44.051676336675882" lon="9.961023889482021">
        <ele>214.15000000000001</ele>
        <time>2015-06-01T08:01:17Z</time>
      </trkpt>
      <trkpt lat="44.051587907597423" lon="9.961002347990871">
        <ele>211.03999999999999</ele>
        <time>2015-06-01T08:00:59Z</time>
      </trkpt>
      <trkpt lat="44.051474165171385" lon="9.961015172302723">
        <ele>208.69</ele>
        <time>2015-06-01T08:00:41Z</time>
      </trkpt>
      <trkpt lat="44.051357824355364" lon="9.961057333275676">
        <ele>205.61000000000001</ele>
        <time>2015-06-01T08:00:22Z</time>
      </trkpt>
      <trkpt lat="44.051266796886921" lon="9.961082227528095">
        <ele>202.58000000000001</ele>
        <time>2015-06-01T08:00:08Z</time>
      </trkpt>
      <trkpt lat="44.051139559596777" lon="9.961128327995539">
        <ele>199.41</ele>
        <time>2015-06-01T07:59:49Z</time>
      </trkpt>
      <trkpt lat="44.051025733351707" lon="9.961173925548792">
        <ele>196.34999999999999</ele>
        <time>2015-06-01T07:59:34Z</time>
      </trkpt>
      <trkpt lat="44.050942249596119" lon="9.961205860599876">
        <ele>193.28999999999999</ele>
        <time>2015-06-01T07:59:20Z</time>
      </trkpt>
      <trkpt lat="44.050880558788776" lon="9.96127299964428">
        <ele>189.65000000000001</ele>
        <time>2015-06-01T07:58:37Z</time>
      </trkpt>
      <trkpt lat="44.050851808860898" lon="9.961331421509385">
        <ele>189.99000000000001</ele>
        <time>2015-06-01T07:57:28Z</time>
      </trkpt>
      <trkpt lat="44.050798919051886" lon="9.961432758718729">
        <ele>186.97999999999999</ele>
        <time>2015-06-01T07:57:09Z</time>
      </trkpt>
      <trkpt lat="44.050719793885946" lon="9.961555385962129">
        <ele>186</ele>
        <time>2015-06-01T07:56:49Z</time>
      </trkpt>
      <trkpt lat="44.050658773630857" lon="9.961613388732076">
        <ele>185</ele>
        <time>2015-06-01T07:56:31Z</time>
      </trkpt>
      <trkpt lat="44.050537990406156" lon="9.961665021255612">
        <ele>182.33000000000001</ele>
        <time>2015-06-01T07:56:11Z</time>
      </trkpt>
      <trkpt lat="44.050454339012504" lon="9.961724616587162">
        <ele>179.15000000000001</ele>
        <time>2015-06-01T07:55:57Z</time>
      </trkpt>
      <trkpt lat="44.05036574229598" lon="9.961802987381816">
        <ele>176.12</ele>
        <time>2015-06-01T07:55:39Z</time>
      </trkpt>
      <trkpt lat="44.050375381484628" lon="9.96183643117547">
        <ele>173.06999999999999</ele>
        <time>2015-06-01T07:55:23Z</time>
      </trkpt>
      <trkpt lat="44.050366245210171" lon="9.961982192471623">
        <ele>171.06</ele>
        <time>2015-06-01T07:55:08Z</time>
      </trkpt>
      <trkpt lat="44.050223501399159" lon="9.962149830535054">
        <ele>168.41</ele>
        <time>2015-06-01T07:54:52Z</time>
      </trkpt>
      <trkpt lat="44.050132222473621" lon="9.962320821359754">
        <ele>168.55000000000001</ele>
        <time>2015-06-01T07:54:37Z</time>
      </trkpt>
      <trkpt lat="44.049983359873295" lon="9.962474126368761">
        <ele>168.31999999999999</ele>
        <time>2015-06-01T07:54:23Z</time>
      </trkpt>
      <trkpt lat="44.049903731793165" lon="9.96263338252902">
        <ele>168.84999999999999</ele>
        <time>2015-06-01T07:54:07Z</time>
      </trkpt>
      <trkpt lat="44.049889063462615" lon="9.962796159088612">
        <ele>170.59</ele>
        <time>2015-06-01T07:53:53Z</time>
      </trkpt>
      <trkpt lat="44.049997441470623" lon="9.962950302287936">
        <ele>170.16999999999999</ele>
        <time>2015-06-01T07:53:36Z</time>
      </trkpt>
      <trkpt lat="44.050093498080969" lon="9.962977040559053">
        <ele>167.13999999999999</ele>
        <time>2015-06-01T07:53:21Z</time>
      </trkpt>
      <trkpt lat="44.050200786441565" lon="9.963129423558712">
        <ele>164.87</ele>
        <time>2015-06-01T07:53:03Z</time>
      </trkpt>
      <trkpt lat="44.050304554402828" lon="9.963340815156698">
        <ele>162.84</ele>
        <time>2015-06-01T07:52:43Z</time>
      </trkpt>
      <trkpt lat="44.050349062308669" lon="9.963558912277222">
        <ele>164.00999999999999</ele>
        <time>2015-06-01T07:52:20Z</time>
      </trkpt>
      <trkpt lat="44.050361383706331" lon="9.963791845366359">
        <ele>165.94</ele>
        <time>2015-06-01T07:52:01Z</time>
      </trkpt>
      <trkpt lat="44.05034420080483" lon="9.964050007984042">
        <ele>168.40000000000001</ele>
        <time>2015-06-01T07:51:40Z</time>
      </trkpt>
      <trkpt lat="44.050310170277953" lon="9.964281851425767">
        <ele>171.15000000000001</ele>
        <time>2015-06-01T07:51:20Z</time>
      </trkpt>
      <trkpt lat="44.050278067588806" lon="9.964458122849464">
        <ele>173.97999999999999</ele>
        <time>2015-06-01T07:51:02Z</time>
      </trkpt>
      <trkpt lat="44.050222747027874" lon="9.964705053716898">
        <ele>176.87</ele>
        <time>2015-06-01T07:50:41Z</time>
      </trkpt>
      <trkpt lat="44.050168935209513" lon="9.964908231049776">
        <ele>179.69</ele>
        <time>2015-06-01T07:50:26Z</time>
      </trkpt>
      <trkpt lat="44.050108082592487" lon="9.965095231309533">
        <ele>181.99000000000001</ele>
        <time>2015-06-01T07:50:08Z</time>
      </trkpt>
      <trkpt lat="44.050059048458934" lon="9.965262115001679">
        <ele>184.11000000000001</ele>
        <time>2015-06-01T07:49:48Z</time>
      </trkpt>
      <trkpt lat="44.04997137375176" lon="9.965419275686145">
        <ele>186.25</ele>
        <time>2015-06-01T07:49:29Z</time>
      </trkpt>
      <trkpt lat="44.049854194745421" lon="9.965528408065438">
        <ele>189.31</ele>
        <time>2015-06-01T07:49:14Z</time>
      </trkpt>
      <trkpt lat="44.049683371558785" lon="9.965648353099823">
        <ele>191.41</ele>
        <time>2015-06-01T07:48:53Z</time>
      </trkpt>
      <trkpt lat="44.049517326056957" lon="9.965761676430702">
        <ele>194.65000000000001</ele>
        <time>2015-06-01T07:48:35Z</time>
      </trkpt>
      <trkpt lat="44.049399308860302" lon="9.965791432186961">
        <ele>197.94</ele>
        <time>2015-06-01T07:48:21Z</time>
      </trkpt>
      <trkpt lat="44.049301743507385" lon="9.965828396379948">
        <ele>200.97999999999999</ele>
        <time>2015-06-01T07:48:03Z</time>
      </trkpt>
      <trkpt lat="44.049226390197873" lon="9.965825211256743">
        <ele>203.21000000000001</ele>
        <time>2015-06-01T07:47:48Z</time>
      </trkpt>
      <trkpt lat="44.049146343022585" lon="9.9658636841923">
        <ele>204.59999999999999</ele>
        <time>2015-06-01T07:47:34Z</time>
      </trkpt>
      <trkpt lat="44.048899244517088" lon="9.965993938967586">
        <ele>206.49000000000001</ele>
        <time>2015-06-01T07:47:13Z</time>
      </trkpt>
      <trkpt lat="44.048651978373528" lon="9.96608697809279">
        <ele>208.58000000000001</ele>
        <time>2015-06-01T07:46:53Z</time>
      </trkpt>
      <trkpt lat="44.048442766070366" lon="9.966136766597629">
        <ele>210.43000000000001</ele>
        <time>2015-06-01T07:46:36Z</time>
      </trkpt>
      <trkpt lat="44.048257358372211" lon="9.966056132689118">
        <ele>211.65000000000001</ele>
        <time>2015-06-01T07:46:20Z</time>
      </trkpt>
      <trkpt lat="44.047983437776566" lon="9.965981282293797">
        <ele>214.02000000000001</ele>
        <time>2015-06-01T07:45:58Z</time>
      </trkpt>
      <trkpt lat="44.047734411433339" lon="9.966062000021339">
        <ele>215.19</ele>
        <time>2015-06-01T07:45:37Z</time>
      </trkpt>
      <trkpt lat="44.047512877732515" lon="9.966133749112487">
        <ele>216.43000000000001</ele>
        <time>2015-06-01T07:45:17Z</time>
      </trkpt>
      <trkpt lat="44.047296289354563" lon="9.966225195676088">
        <ele>217.78999999999999</ele>
        <time>2015-06-01T07:44:59Z</time>
      </trkpt>
      <trkpt lat="44.047160837799311" lon="9.966240199282765">
        <ele>218.28</ele>
        <time>2015-06-01T07:44:46Z</time>
      </trkpt>
      <trkpt lat="44.047129908576608" lon="9.966239780187607">
        <ele>218.49000000000001</ele>
        <time>2015-06-01T07:44:30Z</time>
      </trkpt>
      <trkpt lat="44.047097386792302" lon="9.966284455731511">
        <ele>218.00999999999999</ele>
        <time>2015-06-01T07:43:52Z</time>
      </trkpt>
      <trkpt lat="44.047092190012336" lon="9.966298956423998">
        <ele>215.90000000000001</ele>
        <time>2015-06-01T10:46:02Z</time>
      </trkpt>
      <trkpt lat="44.046960091218352" lon="9.966266183182597">
        <ele>216.56999999999999</ele>
        <time>2015-06-01T10:45:45Z</time>
      </trkpt>
      <trkpt lat="44.046843079850078" lon="9.966211533173919">
        <ele>216.97999999999999</ele>
        <time>2015-06-01T10:45:32Z</time>
      </trkpt>
      <trkpt lat="44.046668820083141" lon="9.966063424944878">
        <ele>218.34</ele>
        <time>2015-06-01T10:45:14Z</time>
      </trkpt>
      <trkpt lat="44.046557759866118" lon="9.965901570394635">
        <ele>219.78999999999999</ele>
        <time>2015-06-01T10:44:59Z</time>
      </trkpt>
      <trkpt lat="44.046509815379977" lon="9.965766118839383">
        <ele>221.91999999999999</ele>
        <time>2015-06-01T10:44:42Z</time>
      </trkpt>
      <trkpt lat="44.046354833990335" lon="9.965649526566267">
        <ele>223.69999999999999</ele>
        <time>2015-06-01T10:44:20Z</time>
      </trkpt>
      <trkpt lat="44.046228434890509" lon="9.965568641200662">
        <ele>224.65000000000001</ele>
        <time>2015-06-01T10:44:02Z</time>
      </trkpt>
      <trkpt lat="44.046172862872481" lon="9.965389939025044">
        <ele>224.49000000000001</ele>
        <time>2015-06-01T10:43:42Z</time>
      </trkpt>
      <trkpt lat="44.04608485288918" lon="9.965270161628723">
        <ele>223.03</ele>
        <time>2015-06-01T10:43:18Z</time>
      </trkpt>
      <trkpt lat="44.045964824035764" lon="9.965319279581308">
        <ele>223.22999999999999</ele>
        <time>2015-06-01T10:43:03Z</time>
      </trkpt>
      <trkpt lat="44.045884776860476" lon="9.965391615405679">
        <ele>224.74000000000001</ele>
        <time>2015-06-01T10:42:43Z</time>
      </trkpt>
      <trkpt lat="44.045781260356307" lon="9.965488007292152">
        <ele>224.97999999999999</ele>
        <time>2015-06-01T10:42:28Z</time>
      </trkpt>
      <trkpt lat="44.045710014179349" lon="9.965571323409677">
        <ele>224.53999999999999</ele>
        <time>2015-06-01T10:42:13Z</time>
      </trkpt>
      <trkpt lat="44.045505914837122" lon="9.965565875172615">
        <ele>223.87</ele>
        <time>2015-06-01T10:41:56Z</time>
      </trkpt>
      <trkpt lat="44.045510189607739" lon="9.965523881837726">
        <ele>222.47</ele>
        <time>2015-06-01T10:41:40Z</time>
      </trkpt>
      <trkpt lat="44.045410277321935" lon="9.965534107759595">
        <ele>220.81999999999999</ele>
        <time>2015-06-01T10:41:22Z</time>
      </trkpt>
      <trkpt lat="44.045307012274861" lon="9.965629577636719">
        <ele>218.44999999999999</ele>
        <time>2015-06-01T10:41:07Z</time>
      </trkpt>
      <trkpt lat="44.045233754441142" lon="9.965757904574275">
        <ele>218.68000000000001</ele>
        <time>2015-06-01T10:40:55Z</time>
      </trkpt>
      <trkpt lat="44.045235011726618" lon="9.965762682259083">
        <ele>234.28</ele>
        <time>2015-07-10T09:44:04Z</time>
      </trkpt>
      <trkpt lat="44.045248338952661" lon="9.965770225971937">
        <ele>235.46000000000001</ele>
        <time>2015-07-10T09:43:59Z</time>
      </trkpt>
      <trkpt lat="44.045299720019102" lon="9.965812722221017">
        <ele>233.53999999999999</ele>
        <time>2015-07-10T09:43:44Z</time>
      </trkpt>
      <trkpt lat="44.045417318120599" lon="9.965888243168593">
        <ele>234.34</ele>
        <time>2015-07-10T09:43:27Z</time>
      </trkpt>
      <trkpt lat="44.04550583101809" lon="9.966002404689789">
        <ele>235.75</ele>
        <time>2015-07-10T09:43:15Z</time>
      </trkpt>
      <trkpt lat="44.045651089400053" lon="9.966128803789616">
        <ele>237.94999999999999</ele>
        <time>2015-07-10T09:42:58Z</time>
      </trkpt>
      <trkpt lat="44.045833228155971" lon="9.966288227587938">
        <ele>239.97999999999999</ele>
        <time>2015-07-10T09:42:41Z</time>
      </trkpt>
      <trkpt lat="44.045973038300872" lon="9.966464163735509">
        <ele>239.97</ele>
        <time>2015-07-10T09:42:21Z</time>
      </trkpt>
      <trkpt lat="44.045973373576999" lon="9.966601207852364">
        <ele>237.97999999999999</ele>
        <time>2015-07-10T09:42:01Z</time>
      </trkpt>
      <trkpt lat="44.046048978343606" lon="9.966778988018632">
        <ele>234.93000000000001</ele>
        <time>2015-07-10T09:41:40Z</time>
      </trkpt>
      <trkpt lat="44.046032885089517" lon="9.966947548091412">
        <ele>233.78999999999999</ele>
        <time>2015-07-10T09:41:24Z</time>
      </trkpt>
      <trkpt lat="44.045904474332929" lon="9.967016279697418">
        <ele>232.58000000000001</ele>
        <time>2015-07-10T09:41:04Z</time>
      </trkpt>
      <trkpt lat="44.04586155898869" lon="9.967073276638985">
        <ele>232.72999999999999</ele>
        <time>2015-07-10T09:40:45Z</time>
      </trkpt>
      <trkpt lat="44.045741194859147" lon="9.967129267752171">
        <ele>231.69</ele>
        <time>2015-07-10T09:40:28Z</time>
      </trkpt>
      <trkpt lat="44.045591242611408" lon="9.967209901660681">
        <ele>231.02000000000001</ele>
        <time>2015-07-10T09:40:13Z</time>
      </trkpt>
      <trkpt lat="44.045510860159993" lon="9.967396734282374">
        <ele>228.34</ele>
        <time>2015-07-10T09:39:54Z</time>
      </trkpt>
      <trkpt lat="44.045414552092552" lon="9.967430429533124">
        <ele>225.27000000000001</ele>
        <time>2015-07-10T09:39:36Z</time>
      </trkpt>
      <trkpt lat="44.045296786352992" lon="9.967465130612254">
        <ele>222.41</ele>
        <time>2015-07-10T09:39:13Z</time>
      </trkpt>
      <trkpt lat="44.045201819390059" lon="9.967523720115423">
        <ele>219.36000000000001</ele>
        <time>2015-07-10T09:38:56Z</time>
      </trkpt>
      <trkpt lat="44.045120598748326" lon="9.967642743140459">
        <ele>216.38999999999999</ele>
        <time>2015-07-10T09:38:33Z</time>
      </trkpt>
      <trkpt lat="44.045103583484888" lon="9.967744667083025">
        <ele>214.55000000000001</ele>
        <time>2015-07-10T09:38:15Z</time>
      </trkpt>
      <trkpt lat="44.045052453875542" lon="9.967822870239615">
        <ele>212.06</ele>
        <time>2015-07-10T09:37:52Z</time>
      </trkpt>
      <trkpt lat="44.044988751411438" lon="9.967926470562816">
        <ele>208.97</ele>
        <time>2015-07-10T09:37:33Z</time>
      </trkpt>
      <trkpt lat="44.044948937371373" lon="9.96815387159586">
        <ele>205.91</ele>
        <time>2015-07-10T09:37:15Z</time>
      </trkpt>
      <trkpt lat="44.044891269877553" lon="9.968370543792844">
        <ele>203.40000000000001</ele>
        <time>2015-07-10T09:36:57Z</time>
      </trkpt>
      <trkpt lat="44.04484667815268" lon="9.968514963984489">
        <ele>201.27000000000001</ele>
        <time>2015-07-10T09:36:38Z</time>
      </trkpt>
      <trkpt lat="44.044820945709944" lon="9.968761978670955">
        <ele>198.90000000000001</ele>
        <time>2015-07-10T09:36:15Z</time>
      </trkpt>
      <trkpt lat="44.044790184125304" lon="9.968964736908674">
        <ele>196.69999999999999</ele>
        <time>2015-07-10T09:35:56Z</time>
      </trkpt>
      <trkpt lat="44.044825974851847" lon="9.969116784632206">
        <ele>193.91</ele>
        <time>2015-07-10T09:35:34Z</time>
      </trkpt>
      <trkpt lat="44.044937454164028" lon="9.969412162899971">
        <ele>190.90000000000001</ele>
        <time>2015-07-10T09:35:12Z</time>
      </trkpt>
      <trkpt lat="44.044984644278884" lon="9.969542920589447">
        <ele>189.21000000000001</ele>
        <time>2015-07-10T09:34:54Z</time>
      </trkpt>
      <trkpt lat="44.045053543522954" lon="9.969751797616482">
        <ele>188.25999999999999</ele>
        <time>2015-07-10T09:34:37Z</time>
      </trkpt>
      <trkpt lat="44.04510417021811" lon="9.96998087503016">
        <ele>187.37</ele>
        <time>2015-07-10T09:34:18Z</time>
      </trkpt>
      <trkpt lat="44.045135602355003" lon="9.970115991309285">
        <ele>186.06999999999999</ele>
        <time>2015-07-10T09:33:59Z</time>
      </trkpt>
      <trkpt lat="44.045105762779713" lon="9.970338698476553">
        <ele>184.56</ele>
        <time>2015-07-10T09:33:40Z</time>
      </trkpt>
      <trkpt lat="44.045096039772034" lon="9.970584204420447">
        <ele>184.13999999999999</ele>
        <time>2015-07-10T09:33:23Z</time>
      </trkpt>
      <trkpt lat="44.045078940689564" lon="9.970801966264844">
        <ele>183.44999999999999</ele>
        <time>2015-07-10T09:33:06Z</time>
      </trkpt>
      <trkpt lat="44.045055471360683" lon="9.971006400883198">
        <ele>181.78</ele>
        <time>2015-07-10T09:32:47Z</time>
      </trkpt>
      <trkpt lat="44.045187402516603" lon="9.971194574609399">
        <ele>180.19</ele>
        <time>2015-07-10T09:32:27Z</time>
      </trkpt>
      <trkpt lat="44.045166363939643" lon="9.971438571810722">
        <ele>178.06999999999999</ele>
        <time>2015-07-10T09:32:06Z</time>
      </trkpt>
      <trkpt lat="44.04511833563447" lon="9.971700757741928">
        <ele>177.47</ele>
        <time>2015-07-10T09:31:47Z</time>
      </trkpt>
      <trkpt lat="44.045131076127291" lon="9.971899911761284">
        <ele>177.88</ele>
        <time>2015-07-10T09:31:34Z</time>
      </trkpt>
      <trkpt lat="44.045104840770364" lon="9.972102753818035">
        <ele>175.93000000000001</ele>
        <time>2015-07-10T09:31:14Z</time>
      </trkpt>
      <trkpt lat="44.045071396976709" lon="9.972338285297155">
        <ele>174.12</ele>
        <time>2015-07-10T09:30:55Z</time>
      </trkpt>
      <trkpt lat="44.045009454712272" lon="9.972633579745889">
        <ele>171.97</ele>
        <time>2015-07-10T09:30:34Z</time>
      </trkpt>
      <trkpt lat="44.044999228790402" lon="9.972773808985949">
        <ele>168.96000000000001</ele>
        <time>2015-07-10T09:30:15Z</time>
      </trkpt>
      <trkpt lat="44.044971065595746" lon="9.97300012037158">
        <ele>166.22</ele>
        <time>2015-07-10T09:29:55Z</time>
      </trkpt>
      <trkpt lat="44.044934688135982" lon="9.973219893872738">
        <ele>164.61000000000001</ele>
        <time>2015-07-10T09:29:36Z</time>
      </trkpt>
      <trkpt lat="44.044907363131642" lon="9.973380239680409">
        <ele>162.44999999999999</ele>
        <time>2015-07-10T09:29:19Z</time>
      </trkpt>
      <trkpt lat="44.044895628467202" lon="9.973577298223972">
        <ele>160.78</ele>
        <time>2015-07-10T09:29:03Z</time>
      </trkpt>
      <trkpt lat="44.044836452230811" lon="9.97368567623198">
        <ele>158.97999999999999</ele>
        <time>2015-07-10T09:28:47Z</time>
      </trkpt>
      <trkpt lat="44.044791189953685" lon="9.97385960072279">
        <ele>157.74000000000001</ele>
        <time>2015-07-10T09:28:29Z</time>
      </trkpt>
      <trkpt lat="44.044723715633154" lon="9.974030004814267">
        <ele>156.99000000000001</ele>
        <time>2015-07-10T09:28:15Z</time>
      </trkpt>
      <trkpt lat="44.04467610642314" lon="9.974230835214257">
        <ele>156.27000000000001</ele>
        <time>2015-07-10T09:28:00Z</time>
      </trkpt>
      <trkpt lat="44.044629167765379" lon="9.974367208778858">
        <ele>155.53999999999999</ele>
        <time>2015-07-10T09:27:49Z</time>
      </trkpt>
      <trkpt lat="44.044655235484242" lon="9.974547503516078">
        <ele>155.12</ele>
        <time>2015-07-10T09:27:33Z</time>
      </trkpt>
      <trkpt lat="44.044683650135994" lon="9.974612630903721">
        <ele>154.53999999999999</ele>
        <time>2015-07-10T09:27:18Z</time>
      </trkpt>
      <trkpt lat="44.044798985123634" lon="9.974828045815229">
        <ele>154.30000000000001</ele>
        <time>2015-07-10T09:27:04Z</time>
      </trkpt>
      <trkpt lat="44.044836033135653" lon="9.975014878436923">
        <ele>154.59999999999999</ele>
        <time>2015-07-10T09:26:49Z</time>
      </trkpt>
      <trkpt lat="44.044905351474881" lon="9.975238004699349">
        <ele>155.66999999999999</ele>
        <time>2015-07-10T09:26:32Z</time>
      </trkpt>
      <trkpt lat="44.045041725039482" lon="9.975459035485983">
        <ele>156.99000000000001</ele>
        <time>2015-07-10T09:26:12Z</time>
      </trkpt>
      <trkpt lat="44.045105343684554" lon="9.975635558366776">
        <ele>156.56</ele>
        <time>2015-07-10T09:25:56Z</time>
      </trkpt>
      <trkpt lat="44.045156305655837" lon="9.975821217522025">
        <ele>154.11000000000001</ele>
        <time>2015-07-10T09:25:34Z</time>
      </trkpt>
      <trkpt lat="44.04516720212996" lon="9.976042751222849">
        <ele>152.80000000000001</ele>
        <time>2015-07-10T09:25:15Z</time>
      </trkpt>
      <trkpt lat="44.045186899602413" lon="9.976311894133687">
        <ele>151.80000000000001</ele>
        <time>2015-07-10T09:24:58Z</time>
      </trkpt>
      <trkpt lat="44.045134764164686" lon="9.976543905213475">
        <ele>149.58000000000001</ele>
        <time>2015-07-10T09:24:37Z</time>
      </trkpt>
      <trkpt lat="44.045052202418447" lon="9.976755045354366">
        <ele>147.41999999999999</ele>
        <time>2015-07-10T09:24:14Z</time>
      </trkpt>
      <trkpt lat="44.044952876865864" lon="9.976966604590416">
        <ele>145.00999999999999</ele>
        <time>2015-07-10T09:23:54Z</time>
      </trkpt>
      <trkpt lat="44.044920522719622" lon="9.977111611515284">
        <ele>143.03999999999999</ele>
        <time>2015-07-10T09:23:36Z</time>
      </trkpt>
      <trkpt lat="44.044864866882563" lon="9.977267850190401">
        <ele>141.13999999999999</ele>
        <time>2015-07-10T09:23:17Z</time>
      </trkpt>
      <trkpt lat="44.044797644019127" lon="9.97742710635066">
        <ele>139</ele>
        <time>2015-07-10T09:23:00Z</time>
      </trkpt>
      <trkpt lat="44.044716339558363" lon="9.97756440192461">
        <ele>135.88</ele>
        <time>2015-07-10T09:22:39Z</time>
      </trkpt>
      <trkpt lat="44.044630341231823" lon="9.977670097723603">
        <ele>132.80000000000001</ele>
        <time>2015-07-10T09:22:20Z</time>
      </trkpt>
      <trkpt lat="44.044623719528317" lon="9.97783119790256">
        <ele>129.77000000000001</ele>
        <time>2015-07-10T09:22:01Z</time>
      </trkpt>
      <trkpt lat="44.044615002349019" lon="9.977895654737949">
        <ele>126.76000000000001</ele>
        <time>2015-07-10T09:21:40Z</time>
      </trkpt>
      <trkpt lat="44.044649032875896" lon="9.977930523455143">
        <ele>123.67</ele>
        <time>2015-07-10T09:21:25Z</time>
      </trkpt>
      <trkpt lat="44.04471080750227" lon="9.977952567860484">
        <ele>120.47</ele>
        <time>2015-07-10T09:21:06Z</time>
      </trkpt>
      <trkpt lat="44.044793285429478" lon="9.978057174012065">
        <ele>117.45</ele>
        <time>2015-07-10T09:20:51Z</time>
      </trkpt>
      <trkpt lat="44.044759757816792" lon="9.978191033005714">
        <ele>116.06</ele>
        <time>2015-07-10T09:20:37Z</time>
      </trkpt>
      <trkpt lat="44.044612487778068" lon="9.978292118757963">
        <ele>117.63</ele>
        <time>2015-07-10T09:20:21Z</time>
      </trkpt>
      <trkpt lat="44.044492542743683" lon="9.978428659960628">
        <ele>118.78</ele>
        <time>2015-07-10T09:20:06Z</time>
      </trkpt>
      <trkpt lat="44.044369077309966" lon="9.978488506749272">
        <ele>118.98</ele>
        <time>2015-07-10T09:19:55Z</time>
      </trkpt>
      <trkpt lat="44.044336471706629" lon="9.978575175628066">
        <ele>118.77</ele>
        <time>2015-07-10T09:19:32Z</time>
      </trkpt>
      <trkpt lat="44.044257765635848" lon="9.978751111775637">
        <ele>116.41</ele>
        <time>2015-07-10T09:19:14Z</time>
      </trkpt>
      <trkpt lat="44.044183921068907" lon="9.978857226669788">
        <ele>114.51000000000001</ele>
        <time>2015-07-10T09:19:02Z</time>
      </trkpt>
      <trkpt lat="44.044115357100964" lon="9.978981530293822">
        <ele>112.73</ele>
        <time>2015-07-10T09:18:48Z</time>
      </trkpt>
      <trkpt lat="44.044026508927345" lon="9.979112623259425">
        <ele>110.47</ele>
        <time>2015-07-10T09:18:31Z</time>
      </trkpt>
      <trkpt lat="44.043949227780104" lon="9.979261821135879">
        <ele>107.44</ele>
        <time>2015-07-10T09:18:13Z</time>
      </trkpt>
      <trkpt lat="44.043888039886951" lon="9.97941923327744">
        <ele>104.27</ele>
        <time>2015-07-10T09:17:54Z</time>
      </trkpt>
      <trkpt lat="44.043954089283943" lon="9.979613358154893">
        <ele>101.73999999999999</ele>
        <time>2015-07-10T09:17:37Z</time>
      </trkpt>
      <trkpt lat="44.043924417346716" lon="9.979762975126505">
        <ele>98.700000000000003</ele>
        <time>2015-07-10T09:17:17Z</time>
      </trkpt>
      <trkpt lat="44.043934056535363" lon="9.979927595704794">
        <ele>95.569999999999993</ele>
        <time>2015-07-10T09:16:59Z</time>
      </trkpt>
      <trkpt lat="44.043910587206483" lon="9.980057766661048">
        <ele>92.530000000000001</ele>
        <time>2015-07-10T09:16:44Z</time>
      </trkpt>
      <trkpt lat="44.043871443718672" lon="9.980225907638669">
        <ele>89.450000000000003</ele>
        <time>2015-07-10T09:16:23Z</time>
      </trkpt>
      <trkpt lat="44.043876808136702" lon="9.980363370850682">
        <ele>86.420000000000002</ele>
        <time>2015-07-10T09:16:06Z</time>
      </trkpt>
      <trkpt lat="44.043880244717002" lon="9.980489937588573">
        <ele>83.5</ele>
        <time>2015-07-10T09:15:48Z</time>
      </trkpt>
      <trkpt lat="44.043942019343376" lon="9.980593370273709">
        <ele>80.319999999999993</ele>
        <time>2015-07-10T09:15:29Z</time>
      </trkpt>
      <trkpt lat="44.04382006265223" lon="9.98060317710042">
        <ele>77.140000000000001</ele>
        <time>2015-07-10T09:15:10Z</time>
      </trkpt>
      <trkpt lat="44.04375652782619" lon="9.9806750100106">
        <ele>76.549999999999997</ele>
        <time>2015-07-10T09:14:44Z</time>
      </trkpt>
      <trkpt lat="44.043778069317341" lon="9.980672327801585">
        <ele>75.549999999999997</ele>
        <time>2015-07-10T09:14:23Z</time>
      </trkpt>
      <trkpt lat="44.04377899132669" lon="9.980683475732803">
        <ele>75.549999999999997</ele>
        <time>2015-07-10T09:14:22Z</time>
      </trkpt>
      <trkpt lat="44.043817799538374" lon="9.980809120461345">
        <ele>76.909999999999997</ele>
        <time>2015-07-10T08:39:26Z</time>
      </trkpt>
      <trkpt lat="44.043890554457903" lon="9.980904087424278">
        <ele>74.859999999999999</ele>
        <time>2015-07-10T08:39:14Z</time>
      </trkpt>
      <trkpt lat="44.044012259691954" lon="9.980973657220602">
        <ele>72.599999999999994</ele>
        <time>2015-07-10T08:38:57Z</time>
      </trkpt>
      <trkpt lat="44.044143687933683" lon="9.980949349701405">
        <ele>70.5</ele>
        <time>2015-07-10T08:38:44Z</time>
      </trkpt>
      <trkpt lat="44.044242762029171" lon="9.980948343873024">
        <ele>68.560000000000002</ele>
        <time>2015-07-10T08:38:32Z</time>
      </trkpt>
      <trkpt lat="44.044348960742354" lon="9.981055296957493">
        <ele>67.730000000000004</ele>
        <time>2015-07-10T08:38:20Z</time>
      </trkpt>
      <trkpt lat="44.044367484748363" lon="9.981168787926436">
        <ele>66.019999999999996</ele>
        <time>2015-07-10T08:38:08Z</time>
      </trkpt>
      <trkpt lat="44.044304620474577" lon="9.981229640543461">
        <ele>64.319999999999993</ele>
        <time>2015-07-10T08:37:58Z</time>
      </trkpt>
      <trkpt lat="44.044330436736345" lon="9.981325697153807">
        <ele>61.840000000000003</ele>
        <time>2015-07-10T08:37:46Z</time>
      </trkpt>
      <trkpt lat="44.044444682076573" lon="9.981425609439611">
        <ele>59.479999999999997</ele>
        <time>2015-07-10T08:37:32Z</time>
      </trkpt>
      <trkpt lat="44.0444381441921" lon="9.981565587222576">
        <ele>58.030000000000001</ele>
        <time>2015-07-10T08:37:20Z</time>
      </trkpt>
      <trkpt lat="44.044423559680581" lon="9.981698859483004">
        <ele>54.909999999999997</ele>
        <time>2015-07-10T08:37:02Z</time>
      </trkpt>
      <trkpt lat="44.044438228011131" lon="9.981832467019558">
        <ele>53.009999999999998</ele>
        <time>2015-07-10T08:36:51Z</time>
      </trkpt>
      <trkpt lat="44.044469576328993" lon="9.981936067342758">
        <ele>50.619999999999997</ele>
        <time>2015-07-10T08:36:39Z</time>
      </trkpt>
      <trkpt lat="44.044526154175401" lon="9.982015946879983">
        <ele>48.460000000000001</ele>
        <time>2015-07-10T08:36:28Z</time>
      </trkpt>
      <trkpt lat="44.04455054551363" lon="9.982149805873632">
        <ele>45.439999999999998</ele>
        <time>2015-07-10T08:36:14Z</time>
      </trkpt>
      <trkpt lat="44.044616259634495" lon="9.982259692624211">
        <ele>44.420000000000002</ele>
        <time>2015-07-10T08:36:04Z</time>
      </trkpt>
      <trkpt lat="44.044610224664211" lon="9.982368405908346">
        <ele>43.399999999999999</ele>
        <time>2015-07-10T08:35:54Z</time>
      </trkpt>
      <trkpt lat="44.044568482786417" lon="9.982406124472618">
        <ele>41.210000000000001</ele>
        <time>2015-07-10T08:35:45Z</time>
      </trkpt>
      <trkpt lat="44.04453344643116" lon="9.98248877003789">
        <ele>39.840000000000003</ele>
        <time>2015-07-10T08:35:35Z</time>
      </trkpt>
      <trkpt lat="44.044589353725314" lon="9.98263050802052">
        <ele>37.420000000000002</ele>
        <time>2015-07-10T08:35:22Z</time>
      </trkpt>
      <trkpt lat="44.044634951278567" lon="9.982779705896974">
        <ele>34.359999999999999</ele>
        <time>2015-07-10T08:35:06Z</time>
      </trkpt>
      <trkpt lat="44.04458717443049" lon="9.982865788042545">
        <ele>33.439999999999998</ele>
        <time>2015-07-10T08:34:54Z</time>
      </trkpt>
      <trkpt lat="44.044475276023149" lon="9.982998473569751">
        <ele>30.370000000000001</ele>
        <time>2015-07-10T08:34:38Z</time>
      </trkpt>
      <trkpt lat="44.044405119493604" lon="9.983126632869244">
        <ele>27.530000000000001</ele>
        <time>2015-07-10T08:34:23Z</time>
      </trkpt>
      <trkpt lat="44.044316355139017" lon="9.983224282041192">
        <ele>24.399999999999999</ele>
        <time>2015-07-10T08:34:10Z</time>
      </trkpt>
      <trkpt lat="44.044265812262893" lon="9.983350345864892">
        <ele>21.949999999999999</ele>
        <time>2015-07-10T08:33:54Z</time>
      </trkpt>
      <trkpt lat="44.044353486970067" lon="9.983543129637837">
        <ele>21.82</ele>
        <time>2015-07-10T08:33:40Z</time>
      </trkpt>
      <trkpt lat="44.044464295729995" lon="9.98368595726788">
        <ele>21.899999999999999</ele>
        <time>2015-07-10T08:33:29Z</time>
      </trkpt>
      <trkpt lat="44.04459404759109" lon="9.983800118789077">
        <ele>21.140000000000001</ele>
        <time>2015-07-10T08:33:16Z</time>
      </trkpt>
      <trkpt lat="44.044705359265208" lon="9.98387647792697">
        <ele>20.109999999999999</ele>
        <time>2015-07-10T08:33:05Z</time>
      </trkpt>
      <trkpt lat="44.044905854389071" lon="9.983843956142664">
        <ele>18.539999999999999</ele>
        <time>2015-07-10T08:32:49Z</time>
      </trkpt>
      <trkpt lat="44.045050190761685" lon="9.983826521784067">
        <ele>16.890000000000001</ele>
        <time>2015-07-10T08:32:36Z</time>
      </trkpt>
      <trkpt lat="44.045181535184383" lon="9.983828281983733">
        <ele>15.33</ele>
        <time>2015-07-10T08:32:24Z</time>
      </trkpt>
      <trkpt lat="44.045312963426113" lon="9.983811434358358">
        <ele>13.109999999999999</ele>
        <time>2015-07-10T08:32:10Z</time>
      </trkpt>
      <trkpt lat="44.045456126332283" lon="9.983819397166371">
        <ele>10.48</ele>
        <time>2015-07-10T08:31:54Z</time>
      </trkpt>
      <trkpt lat="44.045576071366668" lon="9.983812272548676">
        <ele>8.57</ele>
        <time>2015-07-10T08:31:41Z</time>
      </trkpt>
      <trkpt lat="44.045745888724923" lon="9.983798777684569">
        <ele>5.86</ele>
        <time>2015-07-10T08:31:24Z</time>
      </trkpt>
      <trkpt lat="44.045844711363316" lon="9.983783103525639">
        <ele>2.85</ele>
        <time>2015-07-10T08:31:11Z</time>
      </trkpt>
      <trkpt lat="44.045941270887852" lon="9.983755024150014">
        <ele>1.11</ele>
        <time>2015-07-10T08:30:59Z</time>
      </trkpt>
      <trkpt lat="44.046075213700533" lon="9.983733482658863">
        <ele>-1.19</ele>
        <time>2015-07-10T08:30:45Z</time>
      </trkpt>
      <trkpt lat="44.046209659427404" lon="9.983706660568714">
        <ele>-3.9</ele>
        <time>2015-07-10T08:30:30Z</time>
      </trkpt>
      <trkpt lat="44.046346452087164" lon="9.983697440475225">
        <ele>-5.91</ele>
        <time>2015-07-10T08:30:17Z</time>
      </trkpt>
      <trkpt lat="44.046509144827724" lon="9.983647568151355">
        <ele>-8.32</ele>
        <time>2015-07-10T08:30:01Z</time>
      </trkpt>
      <trkpt lat="44.046656917780638" lon="9.983617141842842">
        <ele>-9.800000000000001</ele>
        <time>2015-07-10T08:29:46Z</time>
      </trkpt>
      <trkpt lat="44.046760685741901" lon="9.983569364994764">
        <ele>-11.73</ele>
        <time>2015-07-10T08:29:35Z</time>
      </trkpt>
      <trkpt lat="44.046823214739561" lon="9.983405498787761">
        <ele>-12.18</ele>
        <time>2015-07-10T08:29:24Z</time>
      </trkpt>
      <trkpt lat="44.046851294115186" lon="9.983321595937014">
        <ele>-12.73</ele>
        <time>2015-07-10T08:29:05Z</time>
      </trkpt>
      <trkpt lat="44.046863615512848" lon="9.983314890414476">
        <ele>-12.69</ele>
        <time>2015-07-10T08:29:04Z</time>
      </trkpt>
    </trkseg>
  </trk>

</gpx>